<?xml version="1.0" encoding="UTF-8" standalone="no" ?>
<gpx xmlns="http://www.topografix.com/GPX/1/1" xmlns:xsi="http://www.w3.org/2001/XMLSchema-instance" xsi:schemaLocation="http://www.topografix.com/GPX/1/1 http://www.topografix.com/GPX/1/1/gpx.xsd" version="1.1" creator="VisuGPX - https://www.visugpx.com">
  <metadata>
    <name>ST_RAD_LAYOULE 12km</name>
    <desc><![CDATA[Sortie 12 km]]></desc>
  </metadata>
  <trk>
    <name><![CDATA[st RA 11km+]]></name>
    <trkseg>
      <trkpt lat="44.33561" lon="2.62927">
        <ele>663.4470215</ele>
        <time>2014-09-13T06:23:40Z</time>
      </trkpt>
      <trkpt lat="44.33558" lon="2.62925">
        <ele>660.5629883</ele>
        <time>2014-09-13T06:23:51Z</time>
      </trkpt>
      <trkpt lat="44.33555" lon="2.62923">
        <ele>660.5629883</ele>
        <time>2014-09-13T06:23:54Z</time>
      </trkpt>
      <trkpt lat="44.3355" lon="2.62911">
        <ele>658.1599121</ele>
        <time>2014-09-13T06:24:00Z</time>
      </trkpt>
      <trkpt lat="44.33544" lon="2.62898">
        <ele>656.2370605</ele>
        <time>2014-09-13T06:24:05Z</time>
      </trkpt>
      <trkpt lat="44.33539" lon="2.62885">
        <ele>656.2370605</ele>
        <time>2014-09-13T06:24:10Z</time>
      </trkpt>
      <trkpt lat="44.33541" lon="2.62872">
        <ele>656.2370605</ele>
        <time>2014-09-13T06:24:15Z</time>
      </trkpt>
      <trkpt lat="44.33542" lon="2.62866">
        <ele>656.2370605</ele>
        <time>2014-09-13T06:24:17Z</time>
      </trkpt>
      <trkpt lat="44.33555" lon="2.62846">
        <ele>657.1984863</ele>
        <time>2014-09-13T06:24:26Z</time>
      </trkpt>
      <trkpt lat="44.33567" lon="2.62827">
        <ele>659.1210938</ele>
        <time>2014-09-13T06:24:35Z</time>
      </trkpt>
      <trkpt lat="44.3358" lon="2.62815">
        <ele>660.5629883</ele>
        <time>2014-09-13T06:24:42Z</time>
      </trkpt>
      <trkpt lat="44.33594" lon="2.62809">
        <ele>663.9274902</ele>
        <time>2014-09-13T06:24:50Z</time>
      </trkpt>
      <trkpt lat="44.33608" lon="2.62804">
        <ele>666.8115234</ele>
        <time>2014-09-13T06:24:58Z</time>
      </trkpt>
      <trkpt lat="44.33618" lon="2.62801">
        <ele>670.1762695</ele>
        <time>2014-09-13T06:25:04Z</time>
      </trkpt>
      <trkpt lat="44.33633" lon="2.62798">
        <ele>674.0214844</ele>
        <time>2014-09-13T06:25:12Z</time>
      </trkpt>
      <trkpt lat="44.33648" lon="2.62791">
        <ele>674.9829102</ele>
        <time>2014-09-13T06:25:20Z</time>
      </trkpt>
      <trkpt lat="44.33666" lon="2.62781">
        <ele>675.4633789</ele>
        <time>2014-09-13T06:25:29Z</time>
      </trkpt>
      <trkpt lat="44.33676" lon="2.62765">
        <ele>674.9829102</ele>
        <time>2014-09-13T06:25:36Z</time>
      </trkpt>
      <trkpt lat="44.33689" lon="2.62747">
        <ele>674.9829102</ele>
        <time>2014-09-13T06:25:44Z</time>
      </trkpt>
      <trkpt lat="44.33697" lon="2.62734">
        <ele>675.4633789</ele>
        <time>2014-09-13T06:25:49Z</time>
      </trkpt>
      <trkpt lat="44.33704" lon="2.62721">
        <ele>679.3085938</ele>
        <time>2014-09-13T06:25:54Z</time>
      </trkpt>
      <trkpt lat="44.33713" lon="2.62708">
        <ele>681.2314453</ele>
        <time>2014-09-13T06:26:00Z</time>
      </trkpt>
      <trkpt lat="44.3372" lon="2.62696">
        <ele>682.192627</ele>
        <time>2014-09-13T06:26:05Z</time>
      </trkpt>
      <trkpt lat="44.33734" lon="2.62684">
        <ele>680.2700195</ele>
        <time>2014-09-13T06:26:12Z</time>
      </trkpt>
      <trkpt lat="44.33742" lon="2.62671">
        <ele>680.2700195</ele>
        <time>2014-09-13T06:26:17Z</time>
      </trkpt>
      <trkpt lat="44.3375" lon="2.62653">
        <ele>680.2700195</ele>
        <time>2014-09-13T06:26:23Z</time>
      </trkpt>
      <trkpt lat="44.33757" lon="2.62635">
        <ele>679.3085938</ele>
        <time>2014-09-13T06:26:29Z</time>
      </trkpt>
      <trkpt lat="44.3376" lon="2.62626">
        <ele>680.2700195</ele>
        <time>2014-09-13T06:26:32Z</time>
      </trkpt>
      <trkpt lat="44.33771" lon="2.62607">
        <ele>679.3085938</ele>
        <time>2014-09-13T06:26:39Z</time>
      </trkpt>
      <trkpt lat="44.33783" lon="2.62594">
        <ele>681.2314453</ele>
        <time>2014-09-13T06:26:46Z</time>
      </trkpt>
      <trkpt lat="44.33796" lon="2.62591">
        <ele>682.192627</ele>
        <time>2014-09-13T06:26:52Z</time>
      </trkpt>
      <trkpt lat="44.33812" lon="2.62585">
        <ele>679.3085938</ele>
        <time>2014-09-13T06:26:58Z</time>
      </trkpt>
      <trkpt lat="44.33824" lon="2.62584">
        <ele>680.7507324</ele>
        <time>2014-09-13T06:27:03Z</time>
      </trkpt>
      <trkpt lat="44.33838" lon="2.62579">
        <ele>678.3474121</ele>
        <time>2014-09-13T06:27:09Z</time>
      </trkpt>
      <trkpt lat="44.33854" lon="2.62565">
        <ele>675.9440918</ele>
        <time>2014-09-13T06:27:17Z</time>
      </trkpt>
      <trkpt lat="44.33864" lon="2.62551">
        <ele>673.5410156</ele>
        <time>2014-09-13T06:27:22Z</time>
      </trkpt>
      <trkpt lat="44.33875" lon="2.6253">
        <ele>669.2150879</ele>
        <time>2014-09-13T06:27:29Z</time>
      </trkpt>
      <trkpt lat="44.33885" lon="2.62511">
        <ele>667.2922363</ele>
        <time>2014-09-13T06:27:35Z</time>
      </trkpt>
      <trkpt lat="44.33896" lon="2.62495">
        <ele>664.888916</ele>
        <time>2014-09-13T06:27:41Z</time>
      </trkpt>
      <trkpt lat="44.33911" lon="2.62479">
        <ele>662.9663086</ele>
        <time>2014-09-13T06:27:48Z</time>
      </trkpt>
      <trkpt lat="44.33922" lon="2.62457">
        <ele>661.0437012</ele>
        <time>2014-09-13T06:27:55Z</time>
      </trkpt>
      <trkpt lat="44.33925" lon="2.62431">
        <ele>659.1210938</ele>
        <time>2014-09-13T06:28:02Z</time>
      </trkpt>
      <trkpt lat="44.33927" lon="2.62401">
        <ele>657.1984863</ele>
        <time>2014-09-13T06:28:10Z</time>
      </trkpt>
      <trkpt lat="44.33925" lon="2.6237">
        <ele>656.2370605</ele>
        <time>2014-09-13T06:28:18Z</time>
      </trkpt>
      <trkpt lat="44.33921" lon="2.62348">
        <ele>654.3146973</ele>
        <time>2014-09-13T06:28:24Z</time>
      </trkpt>
      <trkpt lat="44.3392" lon="2.62333">
        <ele>652.3918457</ele>
        <time>2014-09-13T06:28:28Z</time>
      </trkpt>
      <trkpt lat="44.33919" lon="2.6231">
        <ele>650.4692383</ele>
        <time>2014-09-13T06:28:34Z</time>
      </trkpt>
      <trkpt lat="44.33919" lon="2.62307">
        <ele>649.9885254</ele>
        <time>2014-09-13T06:28:35Z</time>
      </trkpt>
      <trkpt lat="44.3392" lon="2.62292">
        <ele>648.5463867</ele>
        <time>2014-09-13T06:28:39Z</time>
      </trkpt>
      <trkpt lat="44.33923" lon="2.62271">
        <ele>647.5852051</ele>
        <time>2014-09-13T06:28:45Z</time>
      </trkpt>
      <trkpt lat="44.33932" lon="2.62251">
        <ele>646.1433105</ele>
        <time>2014-09-13T06:28:51Z</time>
      </trkpt>
      <trkpt lat="44.33944" lon="2.62229">
        <ele>644.2207031</ele>
        <time>2014-09-13T06:28:59Z</time>
      </trkpt>
      <trkpt lat="44.33951" lon="2.62214">
        <ele>643.2592773</ele>
        <time>2014-09-13T06:29:04Z</time>
      </trkpt>
      <trkpt lat="44.33964" lon="2.62195">
        <ele>641.8173828</ele>
        <time>2014-09-13T06:29:10Z</time>
      </trkpt>
      <trkpt lat="44.33969" lon="2.62174">
        <ele>641.3366699</ele>
        <time>2014-09-13T06:29:16Z</time>
      </trkpt>
      <trkpt lat="44.33975" lon="2.6215">
        <ele>640.855957</ele>
        <time>2014-09-13T06:29:23Z</time>
      </trkpt>
      <trkpt lat="44.3398" lon="2.62125">
        <ele>640.3754883</ele>
        <time>2014-09-13T06:29:30Z</time>
      </trkpt>
      <trkpt lat="44.33988" lon="2.62095">
        <ele>639.8947754</ele>
        <time>2014-09-13T06:29:39Z</time>
      </trkpt>
      <trkpt lat="44.33993" lon="2.62074">
        <ele>639.4140625</ele>
        <time>2014-09-13T06:29:45Z</time>
      </trkpt>
      <trkpt lat="44.33998" lon="2.62053">
        <ele>638.4528809</ele>
        <time>2014-09-13T06:29:51Z</time>
      </trkpt>
      <trkpt lat="44.34001" lon="2.6204">
        <ele>637.4914551</ele>
        <time>2014-09-13T06:29:57Z</time>
      </trkpt>
      <trkpt lat="44.34004" lon="2.62032">
        <ele>636.0495605</ele>
        <time>2014-09-13T06:30:01Z</time>
      </trkpt>
      <trkpt lat="44.34011" lon="2.62011">
        <ele>635.0881348</ele>
        <time>2014-09-13T06:30:07Z</time>
      </trkpt>
      <trkpt lat="44.34019" lon="2.61984">
        <ele>634.126709</ele>
        <time>2014-09-13T06:30:15Z</time>
      </trkpt>
      <trkpt lat="44.34026" lon="2.61962">
        <ele>632.6848145</ele>
        <time>2014-09-13T06:30:22Z</time>
      </trkpt>
      <trkpt lat="44.3403" lon="2.61949">
        <ele>631.7233887</ele>
        <time>2014-09-13T06:30:26Z</time>
      </trkpt>
      <trkpt lat="44.34038" lon="2.61929">
        <ele>628.8395996</ele>
        <time>2014-09-13T06:30:32Z</time>
      </trkpt>
      <trkpt lat="44.34047" lon="2.61903">
        <ele>627.3977051</ele>
        <time>2014-09-13T06:30:40Z</time>
      </trkpt>
      <trkpt lat="44.34055" lon="2.61883">
        <ele>625.9555664</ele>
        <time>2014-09-13T06:30:46Z</time>
      </trkpt>
      <trkpt lat="44.34062" lon="2.61864">
        <ele>624.5136719</ele>
        <time>2014-09-13T06:30:52Z</time>
      </trkpt>
      <trkpt lat="44.34068" lon="2.6185">
        <ele>624.032959</ele>
        <time>2014-09-13T06:30:58Z</time>
      </trkpt>
      <trkpt lat="44.34068" lon="2.6185">
        <ele>624.9943848</ele>
        <time>2014-09-13T06:31:09Z</time>
      </trkpt>
      <trkpt lat="44.34069" lon="2.61845">
        <ele>627.8781738</ele>
        <time>2014-09-13T06:31:48Z</time>
      </trkpt>
      <trkpt lat="44.34074" lon="2.61834">
        <ele>625.9555664</ele>
        <time>2014-09-13T06:31:54Z</time>
      </trkpt>
      <trkpt lat="44.34076" lon="2.6183">
        <ele>624.9943848</ele>
        <time>2014-09-13T06:32:00Z</time>
      </trkpt>
      <trkpt lat="44.34084" lon="2.61818">
        <ele>623.0717773</ele>
        <time>2014-09-13T06:32:06Z</time>
      </trkpt>
      <trkpt lat="44.3409" lon="2.61811">
        <ele>621.6296387</ele>
        <time>2014-09-13T06:32:11Z</time>
      </trkpt>
      <trkpt lat="44.34096" lon="2.61804">
        <ele>620.1877441</ele>
        <time>2014-09-13T06:32:23Z</time>
      </trkpt>
      <trkpt lat="44.34104" lon="2.61795">
        <ele>619.7070313</ele>
        <time>2014-09-13T06:32:28Z</time>
      </trkpt>
      <trkpt lat="44.34113" lon="2.61786">
        <ele>619.2263184</ele>
        <time>2014-09-13T06:32:33Z</time>
      </trkpt>
      <trkpt lat="44.34127" lon="2.61769">
        <ele>618.7456055</ele>
        <time>2014-09-13T06:32:40Z</time>
      </trkpt>
      <trkpt lat="44.34141" lon="2.61747">
        <ele>618.7456055</ele>
        <time>2014-09-13T06:32:48Z</time>
      </trkpt>
      <trkpt lat="44.34154" lon="2.61723">
        <ele>617.3037109</ele>
        <time>2014-09-13T06:32:56Z</time>
      </trkpt>
      <trkpt lat="44.34162" lon="2.61701">
        <ele>616.822998</ele>
        <time>2014-09-13T06:33:03Z</time>
      </trkpt>
      <trkpt lat="44.34166" lon="2.61683">
        <ele>616.822998</ele>
        <time>2014-09-13T06:33:08Z</time>
      </trkpt>
      <trkpt lat="44.34172" lon="2.61662">
        <ele>615.3811035</ele>
        <time>2014-09-13T06:33:14Z</time>
      </trkpt>
      <trkpt lat="44.34178" lon="2.6164">
        <ele>614.4196777</ele>
        <time>2014-09-13T06:33:20Z</time>
      </trkpt>
      <trkpt lat="44.3418" lon="2.61617">
        <ele>613.9389648</ele>
        <time>2014-09-13T06:33:26Z</time>
      </trkpt>
      <trkpt lat="44.34182" lon="2.61595">
        <ele>613.4584961</ele>
        <time>2014-09-13T06:33:32Z</time>
      </trkpt>
      <trkpt lat="44.34179" lon="2.61583">
        <ele>613.4584961</ele>
        <time>2014-09-13T06:33:36Z</time>
      </trkpt>
      <trkpt lat="44.34177" lon="2.61566">
        <ele>610.5744629</ele>
        <time>2014-09-13T06:33:40Z</time>
      </trkpt>
      <trkpt lat="44.34185" lon="2.61545">
        <ele>606.2485352</ele>
        <time>2014-09-13T06:33:46Z</time>
      </trkpt>
      <trkpt lat="44.34187" lon="2.61529">
        <ele>605.2873535</ele>
        <time>2014-09-13T06:33:51Z</time>
      </trkpt>
      <trkpt lat="44.34187" lon="2.61511">
        <ele>604.8066406</ele>
        <time>2014-09-13T06:33:56Z</time>
      </trkpt>
      <trkpt lat="44.34187" lon="2.61496">
        <ele>604.8066406</ele>
        <time>2014-09-13T06:34:01Z</time>
      </trkpt>
      <trkpt lat="44.34186" lon="2.61475">
        <ele>606.2485352</ele>
        <time>2014-09-13T06:34:08Z</time>
      </trkpt>
      <trkpt lat="44.34185" lon="2.61455">
        <ele>607.2099609</ele>
        <time>2014-09-13T06:34:14Z</time>
      </trkpt>
      <trkpt lat="44.3419" lon="2.61437">
        <ele>607.2099609</ele>
        <time>2014-09-13T06:34:20Z</time>
      </trkpt>
      <trkpt lat="44.34199" lon="2.61426">
        <ele>609.1325684</ele>
        <time>2014-09-13T06:34:26Z</time>
      </trkpt>
      <trkpt lat="44.34209" lon="2.61417">
        <ele>611.5358887</ele>
        <time>2014-09-13T06:34:32Z</time>
      </trkpt>
      <trkpt lat="44.34218" lon="2.61407">
        <ele>613.4584961</ele>
        <time>2014-09-13T06:34:38Z</time>
      </trkpt>
      <trkpt lat="44.3423" lon="2.61399">
        <ele>613.9389648</ele>
        <time>2014-09-13T06:34:44Z</time>
      </trkpt>
      <trkpt lat="44.34246" lon="2.61386">
        <ele>615.3811035</ele>
        <time>2014-09-13T06:34:53Z</time>
      </trkpt>
      <trkpt lat="44.34258" lon="2.61376">
        <ele>616.822998</ele>
        <time>2014-09-13T06:34:59Z</time>
      </trkpt>
      <trkpt lat="44.34268" lon="2.61367">
        <ele>618.7456055</ele>
        <time>2014-09-13T06:35:04Z</time>
      </trkpt>
      <trkpt lat="44.34277" lon="2.61361">
        <ele>621.6296387</ele>
        <time>2014-09-13T06:35:10Z</time>
      </trkpt>
      <trkpt lat="44.34286" lon="2.61352">
        <ele>620.1877441</ele>
        <time>2014-09-13T06:35:16Z</time>
      </trkpt>
      <trkpt lat="44.34297" lon="2.61339">
        <ele>620.668457</ele>
        <time>2014-09-13T06:35:22Z</time>
      </trkpt>
      <trkpt lat="44.34305" lon="2.61328">
        <ele>621.1491699</ele>
        <time>2014-09-13T06:35:27Z</time>
      </trkpt>
      <trkpt lat="44.34316" lon="2.61311">
        <ele>621.1491699</ele>
        <time>2014-09-13T06:35:34Z</time>
      </trkpt>
      <trkpt lat="44.34324" lon="2.61295">
        <ele>622.1103516</ele>
        <time>2014-09-13T06:35:40Z</time>
      </trkpt>
      <trkpt lat="44.34333" lon="2.61282">
        <ele>623.0717773</ele>
        <time>2014-09-13T06:35:46Z</time>
      </trkpt>
      <trkpt lat="44.34338" lon="2.61271">
        <ele>621.6296387</ele>
        <time>2014-09-13T06:35:51Z</time>
      </trkpt>
      <trkpt lat="44.34345" lon="2.61255">
        <ele>620.668457</ele>
        <time>2014-09-13T06:35:57Z</time>
      </trkpt>
      <trkpt lat="44.34352" lon="2.61237">
        <ele>620.1877441</ele>
        <time>2014-09-13T06:36:03Z</time>
      </trkpt>
      <trkpt lat="44.34358" lon="2.61219">
        <ele>620.668457</ele>
        <time>2014-09-13T06:36:09Z</time>
      </trkpt>
      <trkpt lat="44.34364" lon="2.612">
        <ele>620.668457</ele>
        <time>2014-09-13T06:36:16Z</time>
      </trkpt>
      <trkpt lat="44.34371" lon="2.6118">
        <ele>622.5910645</ele>
        <time>2014-09-13T06:36:23Z</time>
      </trkpt>
      <trkpt lat="44.34376" lon="2.61163">
        <ele>624.9943848</ele>
        <time>2014-09-13T06:36:29Z</time>
      </trkpt>
      <trkpt lat="44.34382" lon="2.61146">
        <ele>626.4362793</ele>
        <time>2014-09-13T06:36:35Z</time>
      </trkpt>
      <trkpt lat="44.34387" lon="2.61128">
        <ele>627.8781738</ele>
        <time>2014-09-13T06:36:41Z</time>
      </trkpt>
      <trkpt lat="44.34395" lon="2.61101">
        <ele>628.8395996</ele>
        <time>2014-09-13T06:36:49Z</time>
      </trkpt>
      <trkpt lat="44.34402" lon="2.61079">
        <ele>629.8007813</ele>
        <time>2014-09-13T06:36:57Z</time>
      </trkpt>
      <trkpt lat="44.34403" lon="2.61075">
        <ele>630.2814941</ele>
        <time>2014-09-13T06:37:01Z</time>
      </trkpt>
      <trkpt lat="44.34408" lon="2.61056">
        <ele>630.762207</ele>
        <time>2014-09-13T06:37:07Z</time>
      </trkpt>
      <trkpt lat="44.34412" lon="2.61042">
        <ele>631.2429199</ele>
        <time>2014-09-13T06:37:12Z</time>
      </trkpt>
      <trkpt lat="44.34416" lon="2.61021">
        <ele>631.7233887</ele>
        <time>2014-09-13T06:37:19Z</time>
      </trkpt>
      <trkpt lat="44.34421" lon="2.61">
        <ele>631.2429199</ele>
        <time>2014-09-13T06:37:26Z</time>
      </trkpt>
      <trkpt lat="44.34424" lon="2.60981">
        <ele>632.6848145</ele>
        <time>2014-09-13T06:37:32Z</time>
      </trkpt>
      <trkpt lat="44.34427" lon="2.60962">
        <ele>633.1652832</ele>
        <time>2014-09-13T06:37:38Z</time>
      </trkpt>
      <trkpt lat="44.34429" lon="2.60943">
        <ele>633.6459961</ele>
        <time>2014-09-13T06:37:44Z</time>
      </trkpt>
      <trkpt lat="44.34432" lon="2.60924">
        <ele>633.1652832</ele>
        <time>2014-09-13T06:37:50Z</time>
      </trkpt>
      <trkpt lat="44.34437" lon="2.60905">
        <ele>632.6848145</ele>
        <time>2014-09-13T06:37:56Z</time>
      </trkpt>
      <trkpt lat="44.3444" lon="2.60889">
        <ele>632.2041016</ele>
        <time>2014-09-13T06:38:01Z</time>
      </trkpt>
      <trkpt lat="44.34445" lon="2.60867">
        <ele>631.2429199</ele>
        <time>2014-09-13T06:38:08Z</time>
      </trkpt>
      <trkpt lat="44.3445" lon="2.60849">
        <ele>631.2429199</ele>
        <time>2014-09-13T06:38:14Z</time>
      </trkpt>
      <trkpt lat="44.34456" lon="2.60828">
        <ele>630.2814941</ele>
        <time>2014-09-13T06:38:21Z</time>
      </trkpt>
      <trkpt lat="44.34462" lon="2.60811">
        <ele>631.2429199</ele>
        <time>2014-09-13T06:38:26Z</time>
      </trkpt>
      <trkpt lat="44.34468" lon="2.60791">
        <ele>632.2041016</ele>
        <time>2014-09-13T06:38:32Z</time>
      </trkpt>
      <trkpt lat="44.34473" lon="2.60774">
        <ele>633.1652832</ele>
        <time>2014-09-13T06:38:38Z</time>
      </trkpt>
      <trkpt lat="44.3448" lon="2.60752">
        <ele>634.6074219</ele>
        <time>2014-09-13T06:38:45Z</time>
      </trkpt>
      <trkpt lat="44.34488" lon="2.60732">
        <ele>637.4914551</ele>
        <time>2014-09-13T06:38:52Z</time>
      </trkpt>
      <trkpt lat="44.34498" lon="2.60714">
        <ele>640.3754883</ele>
        <time>2014-09-13T06:38:58Z</time>
      </trkpt>
      <trkpt lat="44.34505" lon="2.60706">
        <ele>640.3754883</ele>
        <time>2014-09-13T06:39:02Z</time>
      </trkpt>
      <trkpt lat="44.34516" lon="2.60693">
        <ele>642.2980957</ele>
        <time>2014-09-13T06:39:08Z</time>
      </trkpt>
      <trkpt lat="44.34529" lon="2.60673">
        <ele>644.2207031</ele>
        <time>2014-09-13T06:39:16Z</time>
      </trkpt>
      <trkpt lat="44.34538" lon="2.60657">
        <ele>642.7788086</ele>
        <time>2014-09-13T06:39:22Z</time>
      </trkpt>
      <trkpt lat="44.34543" lon="2.60646">
        <ele>641.3366699</ele>
        <time>2014-09-13T06:39:27Z</time>
      </trkpt>
      <trkpt lat="44.34548" lon="2.60639">
        <ele>639.4140625</ele>
        <time>2014-09-13T06:39:47Z</time>
      </trkpt>
      <trkpt lat="44.34545" lon="2.60619">
        <ele>639.8947754</ele>
        <time>2014-09-13T06:39:53Z</time>
      </trkpt>
      <trkpt lat="44.34541" lon="2.60597">
        <ele>639.4140625</ele>
        <time>2014-09-13T06:39:59Z</time>
      </trkpt>
      <trkpt lat="44.34535" lon="2.60571">
        <ele>638.9335938</ele>
        <time>2014-09-13T06:40:06Z</time>
      </trkpt>
      <trkpt lat="44.34529" lon="2.60545">
        <ele>638.4528809</ele>
        <time>2014-09-13T06:40:13Z</time>
      </trkpt>
      <trkpt lat="44.34524" lon="2.60526">
        <ele>637.0107422</ele>
        <time>2014-09-13T06:40:18Z</time>
      </trkpt>
      <trkpt lat="44.34518" lon="2.60497">
        <ele>635.5686035</ele>
        <time>2014-09-13T06:40:26Z</time>
      </trkpt>
      <trkpt lat="44.34513" lon="2.6048">
        <ele>636.0495605</ele>
        <time>2014-09-13T06:40:31Z</time>
      </trkpt>
      <trkpt lat="44.34507" lon="2.60452">
        <ele>635.0881348</ele>
        <time>2014-09-13T06:40:39Z</time>
      </trkpt>
      <trkpt lat="44.34503" lon="2.6043">
        <ele>634.6074219</ele>
        <time>2014-09-13T06:40:45Z</time>
      </trkpt>
      <trkpt lat="44.345" lon="2.60409">
        <ele>635.5686035</ele>
        <time>2014-09-13T06:40:51Z</time>
      </trkpt>
      <trkpt lat="44.34495" lon="2.60383">
        <ele>634.126709</ele>
        <time>2014-09-13T06:40:58Z</time>
      </trkpt>
      <trkpt lat="44.34489" lon="2.60357">
        <ele>635.0881348</ele>
        <time>2014-09-13T06:41:06Z</time>
      </trkpt>
      <trkpt lat="44.34486" lon="2.6034">
        <ele>634.6074219</ele>
        <time>2014-09-13T06:41:11Z</time>
      </trkpt>
      <trkpt lat="44.34481" lon="2.60316">
        <ele>634.126709</ele>
        <time>2014-09-13T06:41:18Z</time>
      </trkpt>
      <trkpt lat="44.34476" lon="2.60291">
        <ele>634.126709</ele>
        <time>2014-09-13T06:41:25Z</time>
      </trkpt>
      <trkpt lat="44.34475" lon="2.6027">
        <ele>633.1652832</ele>
        <time>2014-09-13T06:41:31Z</time>
      </trkpt>
      <trkpt lat="44.34472" lon="2.6025">
        <ele>632.2041016</ele>
        <time>2014-09-13T06:41:37Z</time>
      </trkpt>
      <trkpt lat="44.34473" lon="2.60228">
        <ele>632.2041016</ele>
        <time>2014-09-13T06:41:43Z</time>
      </trkpt>
      <trkpt lat="44.34478" lon="2.60209">
        <ele>632.6848145</ele>
        <time>2014-09-13T06:41:49Z</time>
      </trkpt>
      <trkpt lat="44.34485" lon="2.60187">
        <ele>633.6459961</ele>
        <time>2014-09-13T06:41:55Z</time>
      </trkpt>
      <trkpt lat="44.34493" lon="2.60164">
        <ele>632.6848145</ele>
        <time>2014-09-13T06:42:02Z</time>
      </trkpt>
      <trkpt lat="44.345" lon="2.60144">
        <ele>632.6848145</ele>
        <time>2014-09-13T06:42:08Z</time>
      </trkpt>
      <trkpt lat="44.34506" lon="2.60125">
        <ele>633.6459961</ele>
        <time>2014-09-13T06:42:14Z</time>
      </trkpt>
      <trkpt lat="44.34513" lon="2.60102">
        <ele>634.126709</ele>
        <time>2014-09-13T06:42:21Z</time>
      </trkpt>
      <trkpt lat="44.34519" lon="2.60081">
        <ele>634.126709</ele>
        <time>2014-09-13T06:42:27Z</time>
      </trkpt>
      <trkpt lat="44.34526" lon="2.6005">
        <ele>633.6459961</ele>
        <time>2014-09-13T06:42:36Z</time>
      </trkpt>
      <trkpt lat="44.34534" lon="2.60023">
        <ele>633.6459961</ele>
        <time>2014-09-13T06:42:44Z</time>
      </trkpt>
      <trkpt lat="44.34543" lon="2.59999">
        <ele>633.1652832</ele>
        <time>2014-09-13T06:42:52Z</time>
      </trkpt>
      <trkpt lat="44.34555" lon="2.5997">
        <ele>632.6848145</ele>
        <time>2014-09-13T06:43:01Z</time>
      </trkpt>
      <trkpt lat="44.34565" lon="2.59943">
        <ele>633.1652832</ele>
        <time>2014-09-13T06:43:09Z</time>
      </trkpt>
      <trkpt lat="44.34573" lon="2.59924">
        <ele>632.2041016</ele>
        <time>2014-09-13T06:43:15Z</time>
      </trkpt>
      <trkpt lat="44.34583" lon="2.59897">
        <ele>633.1652832</ele>
        <time>2014-09-13T06:43:23Z</time>
      </trkpt>
      <trkpt lat="44.34592" lon="2.59876">
        <ele>633.6459961</ele>
        <time>2014-09-13T06:43:29Z</time>
      </trkpt>
      <trkpt lat="44.34599" lon="2.59856">
        <ele>633.6459961</ele>
        <time>2014-09-13T06:43:35Z</time>
      </trkpt>
      <trkpt lat="44.34608" lon="2.59831">
        <ele>633.6459961</ele>
        <time>2014-09-13T06:43:42Z</time>
      </trkpt>
      <trkpt lat="44.34615" lon="2.59808">
        <ele>633.6459961</ele>
        <time>2014-09-13T06:43:49Z</time>
      </trkpt>
      <trkpt lat="44.34623" lon="2.59784">
        <ele>634.126709</ele>
        <time>2014-09-13T06:43:56Z</time>
      </trkpt>
      <trkpt lat="44.34632" lon="2.59759">
        <ele>634.6074219</ele>
        <time>2014-09-13T06:44:04Z</time>
      </trkpt>
      <trkpt lat="44.34641" lon="2.59733">
        <ele>635.0881348</ele>
        <time>2014-09-13T06:44:12Z</time>
      </trkpt>
      <trkpt lat="44.3465" lon="2.59707">
        <ele>635.0881348</ele>
        <time>2014-09-13T06:44:20Z</time>
      </trkpt>
      <trkpt lat="44.34656" lon="2.59688">
        <ele>635.0881348</ele>
        <time>2014-09-13T06:44:26Z</time>
      </trkpt>
      <trkpt lat="44.34666" lon="2.59662">
        <ele>635.0881348</ele>
        <time>2014-09-13T06:44:34Z</time>
      </trkpt>
      <trkpt lat="44.34675" lon="2.59631">
        <ele>635.0881348</ele>
        <time>2014-09-13T06:44:43Z</time>
      </trkpt>
      <trkpt lat="44.34679" lon="2.5961">
        <ele>636.0495605</ele>
        <time>2014-09-13T06:44:49Z</time>
      </trkpt>
      <trkpt lat="44.34685" lon="2.59586">
        <ele>636.5302734</ele>
        <time>2014-09-13T06:44:56Z</time>
      </trkpt>
      <trkpt lat="44.34691" lon="2.59565">
        <ele>636.0495605</ele>
        <time>2014-09-13T06:45:02Z</time>
      </trkpt>
      <trkpt lat="44.34698" lon="2.59544">
        <ele>635.5686035</ele>
        <time>2014-09-13T06:45:08Z</time>
      </trkpt>
      <trkpt lat="44.34708" lon="2.59526">
        <ele>634.126709</ele>
        <time>2014-09-13T06:45:14Z</time>
      </trkpt>
      <trkpt lat="44.34714" lon="2.59509">
        <ele>632.6848145</ele>
        <time>2014-09-13T06:45:19Z</time>
      </trkpt>
      <trkpt lat="44.34724" lon="2.59487">
        <ele>631.2429199</ele>
        <time>2014-09-13T06:45:26Z</time>
      </trkpt>
      <trkpt lat="44.34732" lon="2.59471">
        <ele>631.2429199</ele>
        <time>2014-09-13T06:45:32Z</time>
      </trkpt>
      <trkpt lat="44.34743" lon="2.59452">
        <ele>632.2041016</ele>
        <time>2014-09-13T06:45:39Z</time>
      </trkpt>
      <trkpt lat="44.34749" lon="2.59435">
        <ele>630.2814941</ele>
        <time>2014-09-13T06:45:44Z</time>
      </trkpt>
      <trkpt lat="44.34755" lon="2.5942">
        <ele>628.8395996</ele>
        <time>2014-09-13T06:45:49Z</time>
      </trkpt>
      <trkpt lat="44.34755" lon="2.59418">
        <ele>627.8781738</ele>
        <time>2014-09-13T06:45:50Z</time>
      </trkpt>
      <trkpt lat="44.34753" lon="2.59403">
        <ele>624.9943848</ele>
        <time>2014-09-13T06:45:55Z</time>
      </trkpt>
      <trkpt lat="44.3475" lon="2.59385">
        <ele>623.0717773</ele>
        <time>2014-09-13T06:46:00Z</time>
      </trkpt>
      <trkpt lat="44.34745" lon="2.5937">
        <ele>621.6296387</ele>
        <time>2014-09-13T06:46:05Z</time>
      </trkpt>
      <trkpt lat="44.34735" lon="2.59352">
        <ele>618.7456055</ele>
        <time>2014-09-13T06:46:10Z</time>
      </trkpt>
      <trkpt lat="44.34724" lon="2.59327">
        <ele>611.5358887</ele>
        <time>2014-09-13T06:46:16Z</time>
      </trkpt>
      <trkpt lat="44.34722" lon="2.59309">
        <ele>605.2873535</ele>
        <time>2014-09-13T06:46:20Z</time>
      </trkpt>
      <trkpt lat="44.34728" lon="2.593">
        <ele>601.4418945</ele>
        <time>2014-09-13T06:46:24Z</time>
      </trkpt>
      <trkpt lat="44.34743" lon="2.59291">
        <ele>600.4807129</ele>
        <time>2014-09-13T06:46:30Z</time>
      </trkpt>
      <trkpt lat="44.34755" lon="2.59283">
        <ele>603.364502</ele>
        <time>2014-09-13T06:46:36Z</time>
      </trkpt>
      <trkpt lat="44.34767" lon="2.59276">
        <ele>602.4030762</ele>
        <time>2014-09-13T06:46:41Z</time>
      </trkpt>
      <trkpt lat="44.34778" lon="2.59267">
        <ele>601.4418945</ele>
        <time>2014-09-13T06:46:46Z</time>
      </trkpt>
      <trkpt lat="44.3478" lon="2.59265">
        <ele>601.9226074</ele>
        <time>2014-09-13T06:46:47Z</time>
      </trkpt>
      <trkpt lat="44.34789" lon="2.59252">
        <ele>605.7680664</ele>
        <time>2014-09-13T06:46:53Z</time>
      </trkpt>
      <trkpt lat="44.34799" lon="2.59238">
        <ele>608.1713867</ele>
        <time>2014-09-13T06:46:59Z</time>
      </trkpt>
      <trkpt lat="44.34815" lon="2.59222">
        <ele>608.1713867</ele>
        <time>2014-09-13T06:47:06Z</time>
      </trkpt>
      <trkpt lat="44.34828" lon="2.592">
        <ele>601.9226074</ele>
        <time>2014-09-13T06:47:13Z</time>
      </trkpt>
      <trkpt lat="44.34837" lon="2.59187">
        <ele>601.4418945</ele>
        <time>2014-09-13T06:47:18Z</time>
      </trkpt>
      <trkpt lat="44.34845" lon="2.59172">
        <ele>598.0773926</ele>
        <time>2014-09-13T06:47:23Z</time>
      </trkpt>
      <trkpt lat="44.34847" lon="2.59169">
        <ele>597.5966797</ele>
        <time>2014-09-13T06:47:24Z</time>
      </trkpt>
      <trkpt lat="44.34862" lon="2.59161">
        <ele>592.7902832</ele>
        <time>2014-09-13T06:47:30Z</time>
      </trkpt>
      <trkpt lat="44.34864" lon="2.5916">
        <ele>592.7902832</ele>
        <time>2014-09-13T06:47:31Z</time>
      </trkpt>
      <trkpt lat="44.34886" lon="2.59152">
        <ele>582.6962891</ele>
        <time>2014-09-13T06:47:39Z</time>
      </trkpt>
      <trkpt lat="44.34901" lon="2.59144">
        <ele>583.6574707</ele>
        <time>2014-09-13T06:47:44Z</time>
      </trkpt>
      <trkpt lat="44.34911" lon="2.59131">
        <ele>584.6188965</ele>
        <time>2014-09-13T06:47:49Z</time>
      </trkpt>
      <trkpt lat="44.34917" lon="2.5912">
        <ele>585.0996094</ele>
        <time>2014-09-13T06:47:53Z</time>
      </trkpt>
      <trkpt lat="44.34921" lon="2.59116">
        <ele>587.0219727</ele>
        <time>2014-09-13T06:47:55Z</time>
      </trkpt>
      <trkpt lat="44.34934" lon="2.59102">
        <ele>592.7902832</ele>
        <time>2014-09-13T06:48:01Z</time>
      </trkpt>
      <trkpt lat="44.34943" lon="2.59087">
        <ele>590.3869629</ele>
        <time>2014-09-13T06:48:07Z</time>
      </trkpt>
      <trkpt lat="44.34951" lon="2.59064">
        <ele>585.5800781</ele>
        <time>2014-09-13T06:48:13Z</time>
      </trkpt>
      <trkpt lat="44.34961" lon="2.59043">
        <ele>579.8122559</ele>
        <time>2014-09-13T06:48:18Z</time>
      </trkpt>
      <trkpt lat="44.34965" lon="2.59038">
        <ele>580.7736816</ele>
        <time>2014-09-13T06:48:20Z</time>
      </trkpt>
      <trkpt lat="44.34969" lon="2.59022">
        <ele>576.4477539</ele>
        <time>2014-09-13T06:48:25Z</time>
      </trkpt>
      <trkpt lat="44.34971" lon="2.59013">
        <ele>572.6025391</ele>
        <time>2014-09-13T06:48:27Z</time>
      </trkpt>
      <trkpt lat="44.34986" lon="2.58986">
        <ele>564.4311523</ele>
        <time>2014-09-13T06:48:35Z</time>
      </trkpt>
      <trkpt lat="44.34996" lon="2.58972">
        <ele>559.6247559</ele>
        <time>2014-09-13T06:48:40Z</time>
      </trkpt>
      <trkpt lat="44.35006" lon="2.58957">
        <ele>554.8178711</ele>
        <time>2014-09-13T06:48:45Z</time>
      </trkpt>
      <trkpt lat="44.35022" lon="2.58939">
        <ele>552.4145508</ele>
        <time>2014-09-13T06:48:51Z</time>
      </trkpt>
      <trkpt lat="44.35032" lon="2.5892">
        <ele>546.1662598</ele>
        <time>2014-09-13T06:48:57Z</time>
      </trkpt>
      <trkpt lat="44.35041" lon="2.58902">
        <ele>544.2436523</ele>
        <time>2014-09-13T06:49:03Z</time>
      </trkpt>
      <trkpt lat="44.35048" lon="2.58887">
        <ele>541.3594971</ele>
        <time>2014-09-13T06:49:08Z</time>
      </trkpt>
      <trkpt lat="44.35058" lon="2.5887">
        <ele>540.3983154</ele>
        <time>2014-09-13T06:49:15Z</time>
      </trkpt>
      <trkpt lat="44.35059" lon="2.58867">
        <ele>539.4368896</ele>
        <time>2014-09-13T06:49:22Z</time>
      </trkpt>
      <trkpt lat="44.35063" lon="2.58861">
        <ele>536.0723877</ele>
        <time>2014-09-13T06:49:29Z</time>
      </trkpt>
      <trkpt lat="44.35066" lon="2.58851">
        <ele>539.4368896</ele>
        <time>2014-09-13T06:49:38Z</time>
      </trkpt>
      <trkpt lat="44.35071" lon="2.58839">
        <ele>537.0336914</ele>
        <time>2014-09-13T06:49:42Z</time>
      </trkpt>
      <trkpt lat="44.35081" lon="2.58815">
        <ele>534.6303711</ele>
        <time>2014-09-13T06:49:49Z</time>
      </trkpt>
      <trkpt lat="44.35091" lon="2.58796">
        <ele>535.5915527</ele>
        <time>2014-09-13T06:49:55Z</time>
      </trkpt>
      <trkpt lat="44.35099" lon="2.5878">
        <ele>539.9176025</ele>
        <time>2014-09-13T06:50:01Z</time>
      </trkpt>
      <trkpt lat="44.35109" lon="2.58756">
        <ele>537.5142822</ele>
        <time>2014-09-13T06:50:08Z</time>
      </trkpt>
      <trkpt lat="44.35118" lon="2.58733">
        <ele>537.0336914</ele>
        <time>2014-09-13T06:50:14Z</time>
      </trkpt>
      <trkpt lat="44.35129" lon="2.58706">
        <ele>535.5915527</ele>
        <time>2014-09-13T06:50:21Z</time>
      </trkpt>
      <trkpt lat="44.35136" lon="2.58686">
        <ele>535.5915527</ele>
        <time>2014-09-13T06:50:27Z</time>
      </trkpt>
      <trkpt lat="44.35144" lon="2.58665">
        <ele>534.6303711</ele>
        <time>2014-09-13T06:50:33Z</time>
      </trkpt>
      <trkpt lat="44.35154" lon="2.5864">
        <ele>535.5915527</ele>
        <time>2014-09-13T06:50:40Z</time>
      </trkpt>
      <trkpt lat="44.35161" lon="2.58619">
        <ele>536.0723877</ele>
        <time>2014-09-13T06:50:46Z</time>
      </trkpt>
      <trkpt lat="44.35169" lon="2.58598">
        <ele>535.5915527</ele>
        <time>2014-09-13T06:50:52Z</time>
      </trkpt>
      <trkpt lat="44.35176" lon="2.58579">
        <ele>536.0723877</ele>
        <time>2014-09-13T06:50:58Z</time>
      </trkpt>
      <trkpt lat="44.35184" lon="2.58559">
        <ele>537.5142822</ele>
        <time>2014-09-13T06:51:04Z</time>
      </trkpt>
      <trkpt lat="44.35192" lon="2.58537">
        <ele>537.0336914</ele>
        <time>2014-09-13T06:51:10Z</time>
      </trkpt>
      <trkpt lat="44.35201" lon="2.58517">
        <ele>535.5915527</ele>
        <time>2014-09-13T06:51:16Z</time>
      </trkpt>
      <trkpt lat="44.35213" lon="2.58494">
        <ele>535.5915527</ele>
        <time>2014-09-13T06:51:23Z</time>
      </trkpt>
      <trkpt lat="44.35223" lon="2.58476">
        <ele>534.6303711</ele>
        <time>2014-09-13T06:51:29Z</time>
      </trkpt>
      <trkpt lat="44.35236" lon="2.58448">
        <ele>533.1883545</ele>
        <time>2014-09-13T06:51:37Z</time>
      </trkpt>
      <trkpt lat="44.35244" lon="2.58428">
        <ele>531.7463379</ele>
        <time>2014-09-13T06:51:43Z</time>
      </trkpt>
      <trkpt lat="44.35252" lon="2.58408">
        <ele>532.2270508</ele>
        <time>2014-09-13T06:51:49Z</time>
      </trkpt>
      <trkpt lat="44.35262" lon="2.58381">
        <ele>530.7851563</ele>
        <time>2014-09-13T06:51:57Z</time>
      </trkpt>
      <trkpt lat="44.35268" lon="2.58363">
        <ele>529.8237305</ele>
        <time>2014-09-13T06:52:02Z</time>
      </trkpt>
      <trkpt lat="44.35273" lon="2.58345">
        <ele>529.8237305</ele>
        <time>2014-09-13T06:52:07Z</time>
      </trkpt>
      <trkpt lat="44.3528" lon="2.58319">
        <ele>530.7851563</ele>
        <time>2014-09-13T06:52:14Z</time>
      </trkpt>
      <trkpt lat="44.35283" lon="2.58301">
        <ele>530.7851563</ele>
        <time>2014-09-13T06:52:19Z</time>
      </trkpt>
      <trkpt lat="44.35286" lon="2.58283">
        <ele>535.5915527</ele>
        <time>2014-09-13T06:52:25Z</time>
      </trkpt>
      <trkpt lat="44.35292" lon="2.58266">
        <ele>540.8789063</ele>
        <time>2014-09-13T06:52:31Z</time>
      </trkpt>
      <trkpt lat="44.353" lon="2.58244">
        <ele>537.5142822</ele>
        <time>2014-09-13T06:52:37Z</time>
      </trkpt>
      <trkpt lat="44.35307" lon="2.58221">
        <ele>538.475708</ele>
        <time>2014-09-13T06:52:44Z</time>
      </trkpt>
      <trkpt lat="44.3531" lon="2.58196">
        <ele>539.9176025</ele>
        <time>2014-09-13T06:52:51Z</time>
      </trkpt>
      <trkpt lat="44.35311" lon="2.58187">
        <ele>544.7242432</ele>
        <time>2014-09-13T06:52:55Z</time>
      </trkpt>
      <trkpt lat="44.35311" lon="2.58185">
        <ele>545.6855469</ele>
        <time>2014-09-13T06:52:56Z</time>
      </trkpt>
      <trkpt lat="44.35317" lon="2.58165">
        <ele>550.0114746</ele>
        <time>2014-09-13T06:53:02Z</time>
      </trkpt>
      <trkpt lat="44.35312" lon="2.58145">
        <ele>545.6855469</ele>
        <time>2014-09-13T06:53:07Z</time>
      </trkpt>
      <trkpt lat="44.35315" lon="2.5814">
        <ele>543.7628174</ele>
        <time>2014-09-13T06:53:09Z</time>
      </trkpt>
      <trkpt lat="44.35317" lon="2.58136">
        <ele>541.84021</ele>
        <time>2014-09-13T06:53:11Z</time>
      </trkpt>
      <trkpt lat="44.35326" lon="2.58127">
        <ele>538.9562988</ele>
        <time>2014-09-13T06:53:17Z</time>
      </trkpt>
      <trkpt lat="44.35328" lon="2.58126">
        <ele>539.4368896</ele>
        <time>2014-09-13T06:53:18Z</time>
      </trkpt>
      <trkpt lat="44.35344" lon="2.58118">
        <ele>536.0723877</ele>
        <time>2014-09-13T06:53:25Z</time>
      </trkpt>
      <trkpt lat="44.35358" lon="2.58112">
        <ele>532.2270508</ele>
        <time>2014-09-13T06:53:31Z</time>
      </trkpt>
      <trkpt lat="44.3536" lon="2.58112">
        <ele>532.7077637</ele>
        <time>2014-09-13T06:53:32Z</time>
      </trkpt>
      <trkpt lat="44.35365" lon="2.58118">
        <ele>525.9783936</ele>
        <time>2014-09-13T06:53:37Z</time>
      </trkpt>
      <trkpt lat="44.35366" lon="2.58123">
        <ele>522.1331787</ele>
        <time>2014-09-13T06:53:39Z</time>
      </trkpt>
      <trkpt lat="44.35368" lon="2.58136">
        <ele>509.1553955</ele>
        <time>2014-09-13T06:53:45Z</time>
      </trkpt>
      <trkpt lat="44.35364" lon="2.58157">
        <ele>512.0394287</ele>
        <time>2014-09-13T06:53:51Z</time>
      </trkpt>
      <trkpt lat="44.35361" lon="2.58177">
        <ele>513.9620361</ele>
        <time>2014-09-13T06:53:56Z</time>
      </trkpt>
      <trkpt lat="44.35355" lon="2.58198">
        <ele>523.5751953</ele>
        <time>2014-09-13T06:54:01Z</time>
      </trkpt>
      <trkpt lat="44.3535" lon="2.5822">
        <ele>532.2270508</ele>
        <time>2014-09-13T06:54:06Z</time>
      </trkpt>
      <trkpt lat="44.35345" lon="2.58241">
        <ele>539.4368896</ele>
        <time>2014-09-13T06:54:12Z</time>
      </trkpt>
      <trkpt lat="44.35343" lon="2.58261">
        <ele>547.1274414</ele>
        <time>2014-09-13T06:54:18Z</time>
      </trkpt>
      <trkpt lat="44.35342" lon="2.58279">
        <ele>555.7792969</ele>
        <time>2014-09-13T06:54:23Z</time>
      </trkpt>
      <trkpt lat="44.35344" lon="2.58296">
        <ele>551.4533691</ele>
        <time>2014-09-13T06:54:27Z</time>
      </trkpt>
      <trkpt lat="44.35344" lon="2.58319">
        <ele>563.4699707</ele>
        <time>2014-09-13T06:54:34Z</time>
      </trkpt>
      <trkpt lat="44.35344" lon="2.58336">
        <ele>571.1604004</ele>
        <time>2014-09-13T06:54:39Z</time>
      </trkpt>
      <trkpt lat="44.35347" lon="2.58347">
        <ele>571.6408691</ele>
        <time>2014-09-13T06:54:42Z</time>
      </trkpt>
      <trkpt lat="44.35348" lon="2.58367">
        <ele>576.9284668</ele>
        <time>2014-09-13T06:54:49Z</time>
      </trkpt>
      <trkpt lat="44.35352" lon="2.5839">
        <ele>576.9284668</ele>
        <time>2014-09-13T06:54:56Z</time>
      </trkpt>
      <trkpt lat="44.35357" lon="2.58411">
        <ele>574.0444336</ele>
        <time>2014-09-13T06:55:02Z</time>
      </trkpt>
      <trkpt lat="44.35359" lon="2.58426">
        <ele>572.1218262</ele>
        <time>2014-09-13T06:55:07Z</time>
      </trkpt>
      <trkpt lat="44.35363" lon="2.58445">
        <ele>574.5251465</ele>
        <time>2014-09-13T06:55:14Z</time>
      </trkpt>
      <trkpt lat="44.35367" lon="2.58463">
        <ele>573.083252</ele>
        <time>2014-09-13T06:55:20Z</time>
      </trkpt>
      <trkpt lat="44.35373" lon="2.58487">
        <ele>562.5085449</ele>
        <time>2014-09-13T06:55:27Z</time>
      </trkpt>
      <trkpt lat="44.35377" lon="2.58504">
        <ele>549.5307617</ele>
        <time>2014-09-13T06:55:32Z</time>
      </trkpt>
      <trkpt lat="44.35376" lon="2.58522">
        <ele>542.8015137</ele>
        <time>2014-09-13T06:55:37Z</time>
      </trkpt>
      <trkpt lat="44.35371" lon="2.58538">
        <ele>537.5142822</ele>
        <time>2014-09-13T06:55:42Z</time>
      </trkpt>
      <trkpt lat="44.35361" lon="2.58551">
        <ele>529.8237305</ele>
        <time>2014-09-13T06:55:47Z</time>
      </trkpt>
      <trkpt lat="44.35357" lon="2.58556">
        <ele>528.3818359</ele>
        <time>2014-09-13T06:55:49Z</time>
      </trkpt>
      <trkpt lat="44.3535" lon="2.5857">
        <ele>527.4204102</ele>
        <time>2014-09-13T06:55:54Z</time>
      </trkpt>
      <trkpt lat="44.35338" lon="2.58588">
        <ele>530.7851563</ele>
        <time>2014-09-13T06:56:00Z</time>
      </trkpt>
      <trkpt lat="44.35325" lon="2.58609">
        <ele>534.1496582</ele>
        <time>2014-09-13T06:56:06Z</time>
      </trkpt>
      <trkpt lat="44.35316" lon="2.5863">
        <ele>532.7077637</ele>
        <time>2014-09-13T06:56:12Z</time>
      </trkpt>
      <trkpt lat="44.35311" lon="2.58645">
        <ele>532.2270508</ele>
        <time>2014-09-13T06:56:17Z</time>
      </trkpt>
      <trkpt lat="44.35313" lon="2.58654">
        <ele>527.4204102</ele>
        <time>2014-09-13T06:56:22Z</time>
      </trkpt>
      <trkpt lat="44.35313" lon="2.58663">
        <ele>524.0557861</ele>
        <time>2014-09-13T06:56:26Z</time>
      </trkpt>
      <trkpt lat="44.35313" lon="2.58674">
        <ele>519.7298584</ele>
        <time>2014-09-13T06:56:31Z</time>
      </trkpt>
      <trkpt lat="44.35303" lon="2.58688">
        <ele>523.5751953</ele>
        <time>2014-09-13T06:56:36Z</time>
      </trkpt>
      <trkpt lat="44.35287" lon="2.58703">
        <ele>527.901001</ele>
        <time>2014-09-13T06:56:41Z</time>
      </trkpt>
      <trkpt lat="44.35271" lon="2.58718">
        <ele>533.6689453</ele>
        <time>2014-09-13T06:56:45Z</time>
      </trkpt>
      <trkpt lat="44.35261" lon="2.58736">
        <ele>538.9562988</ele>
        <time>2014-09-13T06:56:50Z</time>
      </trkpt>
      <trkpt lat="44.35251" lon="2.58755">
        <ele>541.84021</ele>
        <time>2014-09-13T06:56:55Z</time>
      </trkpt>
      <trkpt lat="44.35244" lon="2.58776">
        <ele>540.3983154</ele>
        <time>2014-09-13T06:57:01Z</time>
      </trkpt>
      <trkpt lat="44.35241" lon="2.58782">
        <ele>539.9176025</ele>
        <time>2014-09-13T06:57:03Z</time>
      </trkpt>
      <trkpt lat="44.35236" lon="2.58798">
        <ele>541.3594971</ele>
        <time>2014-09-13T06:57:08Z</time>
      </trkpt>
      <trkpt lat="44.35228" lon="2.58819">
        <ele>538.475708</ele>
        <time>2014-09-13T06:57:14Z</time>
      </trkpt>
      <trkpt lat="44.35225" lon="2.58825">
        <ele>537.9949951</ele>
        <time>2014-09-13T06:57:16Z</time>
      </trkpt>
      <trkpt lat="44.35221" lon="2.5884">
        <ele>536.0723877</ele>
        <time>2014-09-13T06:57:21Z</time>
      </trkpt>
      <trkpt lat="44.35213" lon="2.5886">
        <ele>532.7077637</ele>
        <time>2014-09-13T06:57:28Z</time>
      </trkpt>
      <trkpt lat="44.35211" lon="2.5887">
        <ele>531.2657471</ele>
        <time>2014-09-13T06:57:32Z</time>
      </trkpt>
      <trkpt lat="44.35202" lon="2.58895">
        <ele>531.2657471</ele>
        <time>2014-09-13T06:57:40Z</time>
      </trkpt>
      <trkpt lat="44.35195" lon="2.58911">
        <ele>532.2270508</ele>
        <time>2014-09-13T06:57:44Z</time>
      </trkpt>
      <trkpt lat="44.35185" lon="2.58931">
        <ele>531.2657471</ele>
        <time>2014-09-13T06:57:50Z</time>
      </trkpt>
      <trkpt lat="44.35174" lon="2.58953">
        <ele>533.1883545</ele>
        <time>2014-09-13T06:57:56Z</time>
      </trkpt>
      <trkpt lat="44.35172" lon="2.58956">
        <ele>533.6689453</ele>
        <time>2014-09-13T06:57:57Z</time>
      </trkpt>
      <trkpt lat="44.35168" lon="2.58974">
        <ele>534.1496582</ele>
        <time>2014-09-13T06:58:03Z</time>
      </trkpt>
      <trkpt lat="44.35161" lon="2.58988">
        <ele>533.6689453</ele>
        <time>2014-09-13T06:58:08Z</time>
      </trkpt>
      <trkpt lat="44.35153" lon="2.59003">
        <ele>532.2270508</ele>
        <time>2014-09-13T06:58:13Z</time>
      </trkpt>
      <trkpt lat="44.35143" lon="2.59015">
        <ele>529.3431396</ele>
        <time>2014-09-13T06:58:18Z</time>
      </trkpt>
      <trkpt lat="44.35134" lon="2.59027">
        <ele>526.9398193</ele>
        <time>2014-09-13T06:58:24Z</time>
      </trkpt>
      <trkpt lat="44.3513" lon="2.59031">
        <ele>525.9783936</ele>
        <time>2014-09-13T06:58:26Z</time>
      </trkpt>
      <trkpt lat="44.35119" lon="2.59052">
        <ele>525.9783936</ele>
        <time>2014-09-13T06:58:34Z</time>
      </trkpt>
      <trkpt lat="44.35109" lon="2.59063">
        <ele>525.4978027</ele>
        <time>2014-09-13T06:58:38Z</time>
      </trkpt>
      <trkpt lat="44.35108" lon="2.59066">
        <ele>525.4978027</ele>
        <time>2014-09-13T06:58:39Z</time>
      </trkpt>
      <trkpt lat="44.35096" lon="2.59084">
        <ele>525.0172119</ele>
        <time>2014-09-13T06:58:45Z</time>
      </trkpt>
      <trkpt lat="44.35094" lon="2.59087">
        <ele>525.4978027</ele>
        <time>2014-09-13T06:58:46Z</time>
      </trkpt>
      <trkpt lat="44.35089" lon="2.59093">
        <ele>524.536499</ele>
        <time>2014-09-13T06:58:49Z</time>
      </trkpt>
      <trkpt lat="44.35079" lon="2.59107">
        <ele>525.9783936</ele>
        <time>2014-09-13T06:58:54Z</time>
      </trkpt>
      <trkpt lat="44.35071" lon="2.5912">
        <ele>526.4591064</ele>
        <time>2014-09-13T06:58:59Z</time>
      </trkpt>
      <trkpt lat="44.35068" lon="2.59126">
        <ele>526.4591064</ele>
        <time>2014-09-13T06:59:01Z</time>
      </trkpt>
      <trkpt lat="44.35053" lon="2.59147">
        <ele>528.8625488</ele>
        <time>2014-09-13T06:59:08Z</time>
      </trkpt>
      <trkpt lat="44.35042" lon="2.59165">
        <ele>530.7851563</ele>
        <time>2014-09-13T06:59:13Z</time>
      </trkpt>
      <trkpt lat="44.35032" lon="2.59184">
        <ele>530.7851563</ele>
        <time>2014-09-13T06:59:18Z</time>
      </trkpt>
      <trkpt lat="44.35021" lon="2.59203">
        <ele>530.7851563</ele>
        <time>2014-09-13T06:59:23Z</time>
      </trkpt>
      <trkpt lat="44.35014" lon="2.59223">
        <ele>531.2657471</ele>
        <time>2014-09-13T06:59:29Z</time>
      </trkpt>
      <trkpt lat="44.35008" lon="2.59242">
        <ele>531.7463379</ele>
        <time>2014-09-13T06:59:34Z</time>
      </trkpt>
      <trkpt lat="44.35009" lon="2.59245">
        <ele>532.2270508</ele>
        <time>2014-09-13T06:59:35Z</time>
      </trkpt>
      <trkpt lat="44.35013" lon="2.59262">
        <ele>534.1496582</ele>
        <time>2014-09-13T06:59:41Z</time>
      </trkpt>
      <trkpt lat="44.35006" lon="2.59286">
        <ele>539.9176025</ele>
        <time>2014-09-13T06:59:47Z</time>
      </trkpt>
      <trkpt lat="44.35005" lon="2.59291">
        <ele>540.8789063</ele>
        <time>2014-09-13T06:59:48Z</time>
      </trkpt>
      <trkpt lat="44.34999" lon="2.593">
        <ele>545.204834</ele>
        <time>2014-09-13T06:59:50Z</time>
      </trkpt>
      <trkpt lat="44.34981" lon="2.59324">
        <ele>555.298584</ele>
        <time>2014-09-13T06:59:55Z</time>
      </trkpt>
      <trkpt lat="44.34981" lon="2.59327">
        <ele>555.298584</ele>
        <time>2014-09-13T06:59:56Z</time>
      </trkpt>
      <trkpt lat="44.34977" lon="2.59341">
        <ele>560.5859375</ele>
        <time>2014-09-13T06:59:59Z</time>
      </trkpt>
      <trkpt lat="44.34975" lon="2.59376">
        <ele>558.1828613</ele>
        <time>2014-09-13T07:00:06Z</time>
      </trkpt>
      <trkpt lat="44.34975" lon="2.594">
        <ele>556.7407227</ele>
        <time>2014-09-13T07:00:11Z</time>
      </trkpt>
      <trkpt lat="44.3498" lon="2.59427">
        <ele>552.4145508</ele>
        <time>2014-09-13T07:00:17Z</time>
      </trkpt>
      <trkpt lat="44.34985" lon="2.59455">
        <ele>552.8952637</ele>
        <time>2014-09-13T07:00:24Z</time>
      </trkpt>
      <trkpt lat="44.34993" lon="2.59477">
        <ele>546.1662598</ele>
        <time>2014-09-13T07:00:30Z</time>
      </trkpt>
      <trkpt lat="44.34998" lon="2.59504">
        <ele>539.4368896</ele>
        <time>2014-09-13T07:00:36Z</time>
      </trkpt>
      <trkpt lat="44.35002" lon="2.59532">
        <ele>537.0336914</ele>
        <time>2014-09-13T07:00:43Z</time>
      </trkpt>
      <trkpt lat="44.35005" lon="2.59551">
        <ele>537.5142822</ele>
        <time>2014-09-13T07:00:48Z</time>
      </trkpt>
      <trkpt lat="44.3501" lon="2.59572">
        <ele>540.3983154</ele>
        <time>2014-09-13T07:00:54Z</time>
      </trkpt>
      <trkpt lat="44.35012" lon="2.59591">
        <ele>540.8789063</ele>
        <time>2014-09-13T07:00:59Z</time>
      </trkpt>
      <trkpt lat="44.35012" lon="2.59629">
        <ele>538.9562988</ele>
        <time>2014-09-13T07:01:08Z</time>
      </trkpt>
      <trkpt lat="44.35016" lon="2.59652">
        <ele>537.9949951</ele>
        <time>2014-09-13T07:01:14Z</time>
      </trkpt>
      <trkpt lat="44.35024" lon="2.59666">
        <ele>537.0336914</ele>
        <time>2014-09-13T07:01:19Z</time>
      </trkpt>
      <trkpt lat="44.35034" lon="2.59676">
        <ele>536.0723877</ele>
        <time>2014-09-13T07:01:24Z</time>
      </trkpt>
      <trkpt lat="44.3505" lon="2.59682">
        <ele>534.6303711</ele>
        <time>2014-09-13T07:01:30Z</time>
      </trkpt>
      <trkpt lat="44.35068" lon="2.59678">
        <ele>533.6689453</ele>
        <time>2014-09-13T07:01:37Z</time>
      </trkpt>
      <trkpt lat="44.35087" lon="2.59668">
        <ele>533.6689453</ele>
        <time>2014-09-13T07:01:44Z</time>
      </trkpt>
      <trkpt lat="44.35102" lon="2.59658">
        <ele>533.1883545</ele>
        <time>2014-09-13T07:01:50Z</time>
      </trkpt>
      <trkpt lat="44.35114" lon="2.59645">
        <ele>534.1496582</ele>
        <time>2014-09-13T07:01:56Z</time>
      </trkpt>
      <trkpt lat="44.35131" lon="2.59618">
        <ele>534.1496582</ele>
        <time>2014-09-13T07:02:06Z</time>
      </trkpt>
      <trkpt lat="44.35145" lon="2.59595">
        <ele>535.5915527</ele>
        <time>2014-09-13T07:02:14Z</time>
      </trkpt>
      <trkpt lat="44.35159" lon="2.59573">
        <ele>535.1109619</ele>
        <time>2014-09-13T07:02:22Z</time>
      </trkpt>
      <trkpt lat="44.3517" lon="2.59554">
        <ele>536.5531006</ele>
        <time>2014-09-13T07:02:29Z</time>
      </trkpt>
      <trkpt lat="44.35183" lon="2.59532">
        <ele>537.0336914</ele>
        <time>2014-09-13T07:02:37Z</time>
      </trkpt>
      <trkpt lat="44.35196" lon="2.59511">
        <ele>536.5531006</ele>
        <time>2014-09-13T07:02:45Z</time>
      </trkpt>
      <trkpt lat="44.35206" lon="2.59494">
        <ele>539.9176025</ele>
        <time>2014-09-13T07:02:52Z</time>
      </trkpt>
      <trkpt lat="44.35213" lon="2.5948">
        <ele>540.3983154</ele>
        <time>2014-09-13T07:02:57Z</time>
      </trkpt>
      <trkpt lat="44.3522" lon="2.59468">
        <ele>538.9562988</ele>
        <time>2014-09-13T07:03:02Z</time>
      </trkpt>
      <trkpt lat="44.35231" lon="2.59451">
        <ele>537.5142822</ele>
        <time>2014-09-13T07:03:08Z</time>
      </trkpt>
      <trkpt lat="44.35244" lon="2.59431">
        <ele>537.5142822</ele>
        <time>2014-09-13T07:03:15Z</time>
      </trkpt>
      <trkpt lat="44.35256" lon="2.59416">
        <ele>537.0336914</ele>
        <time>2014-09-13T07:03:21Z</time>
      </trkpt>
      <trkpt lat="44.35267" lon="2.59404">
        <ele>537.9949951</ele>
        <time>2014-09-13T07:03:26Z</time>
      </trkpt>
      <trkpt lat="44.35279" lon="2.59389">
        <ele>543.7628174</ele>
        <time>2014-09-13T07:03:32Z</time>
      </trkpt>
      <trkpt lat="44.35294" lon="2.59378">
        <ele>554.3374023</ele>
        <time>2014-09-13T07:03:39Z</time>
      </trkpt>
      <trkpt lat="44.35303" lon="2.59363">
        <ele>557.2214355</ele>
        <time>2014-09-13T07:03:44Z</time>
      </trkpt>
      <trkpt lat="44.35314" lon="2.59337">
        <ele>551.934082</ele>
        <time>2014-09-13T07:03:51Z</time>
      </trkpt>
      <trkpt lat="44.35325" lon="2.59317">
        <ele>547.6081543</ele>
        <time>2014-09-13T07:03:57Z</time>
      </trkpt>
      <trkpt lat="44.35337" lon="2.59296">
        <ele>545.204834</ele>
        <time>2014-09-13T07:04:04Z</time>
      </trkpt>
      <trkpt lat="44.35346" lon="2.5928">
        <ele>542.8015137</ele>
        <time>2014-09-13T07:04:09Z</time>
      </trkpt>
      <trkpt lat="44.35357" lon="2.59265">
        <ele>541.3594971</ele>
        <time>2014-09-13T07:04:14Z</time>
      </trkpt>
      <trkpt lat="44.35366" lon="2.59253">
        <ele>541.3594971</ele>
        <time>2014-09-13T07:04:19Z</time>
      </trkpt>
      <trkpt lat="44.35378" lon="2.59239">
        <ele>536.5531006</ele>
        <time>2014-09-13T07:04:25Z</time>
      </trkpt>
      <trkpt lat="44.35391" lon="2.59223">
        <ele>535.5915527</ele>
        <time>2014-09-13T07:04:31Z</time>
      </trkpt>
      <trkpt lat="44.35405" lon="2.59209">
        <ele>537.5142822</ele>
        <time>2014-09-13T07:04:37Z</time>
      </trkpt>
      <trkpt lat="44.35419" lon="2.59198">
        <ele>538.475708</ele>
        <time>2014-09-13T07:04:42Z</time>
      </trkpt>
      <trkpt lat="44.35433" lon="2.59184">
        <ele>539.9176025</ele>
        <time>2014-09-13T07:04:47Z</time>
      </trkpt>
      <trkpt lat="44.35449" lon="2.59168">
        <ele>544.7242432</ele>
        <time>2014-09-13T07:04:54Z</time>
      </trkpt>
      <trkpt lat="44.35461" lon="2.59154">
        <ele>552.4145508</ele>
        <time>2014-09-13T07:05:00Z</time>
      </trkpt>
      <trkpt lat="44.35472" lon="2.59141">
        <ele>558.1828613</ele>
        <time>2014-09-13T07:05:06Z</time>
      </trkpt>
      <trkpt lat="44.3548" lon="2.5913">
        <ele>556.7407227</ele>
        <time>2014-09-13T07:05:10Z</time>
      </trkpt>
      <trkpt lat="44.35493" lon="2.59112">
        <ele>551.934082</ele>
        <time>2014-09-13T07:05:16Z</time>
      </trkpt>
      <trkpt lat="44.35503" lon="2.59101">
        <ele>544.2436523</ele>
        <time>2014-09-13T07:05:21Z</time>
      </trkpt>
      <trkpt lat="44.35513" lon="2.59094">
        <ele>537.9949951</ele>
        <time>2014-09-13T07:05:26Z</time>
      </trkpt>
      <trkpt lat="44.3553" lon="2.59087">
        <ele>539.9176025</ele>
        <time>2014-09-13T07:05:32Z</time>
      </trkpt>
      <trkpt lat="44.3555" lon="2.5908">
        <ele>541.84021</ele>
        <time>2014-09-13T07:05:38Z</time>
      </trkpt>
      <trkpt lat="44.35567" lon="2.5908">
        <ele>544.7242432</ele>
        <time>2014-09-13T07:05:44Z</time>
      </trkpt>
      <trkpt lat="44.35585" lon="2.59089">
        <ele>539.4368896</ele>
        <time>2014-09-13T07:05:50Z</time>
      </trkpt>
      <trkpt lat="44.35598" lon="2.59099">
        <ele>538.9562988</ele>
        <time>2014-09-13T07:05:55Z</time>
      </trkpt>
      <trkpt lat="44.35615" lon="2.59119">
        <ele>536.0723877</ele>
        <time>2014-09-13T07:06:02Z</time>
      </trkpt>
      <trkpt lat="44.35629" lon="2.59141">
        <ele>535.5915527</ele>
        <time>2014-09-13T07:06:09Z</time>
      </trkpt>
      <trkpt lat="44.35638" lon="2.59157">
        <ele>537.0336914</ele>
        <time>2014-09-13T07:06:14Z</time>
      </trkpt>
      <trkpt lat="44.35654" lon="2.59184">
        <ele>537.0336914</ele>
        <time>2014-09-13T07:06:22Z</time>
      </trkpt>
      <trkpt lat="44.35668" lon="2.59207">
        <ele>536.0723877</ele>
        <time>2014-09-13T07:06:29Z</time>
      </trkpt>
      <trkpt lat="44.3568" lon="2.59225">
        <ele>537.0336914</ele>
        <time>2014-09-13T07:06:35Z</time>
      </trkpt>
      <trkpt lat="44.35691" lon="2.59243">
        <ele>536.5531006</ele>
        <time>2014-09-13T07:06:41Z</time>
      </trkpt>
      <trkpt lat="44.35699" lon="2.59258">
        <ele>537.0336914</ele>
        <time>2014-09-13T07:06:46Z</time>
      </trkpt>
      <trkpt lat="44.35704" lon="2.59275">
        <ele>535.1109619</ele>
        <time>2014-09-13T07:06:51Z</time>
      </trkpt>
      <trkpt lat="44.3571" lon="2.59294">
        <ele>536.5531006</ele>
        <time>2014-09-13T07:06:57Z</time>
      </trkpt>
      <trkpt lat="44.35715" lon="2.5931">
        <ele>537.9949951</ele>
        <time>2014-09-13T07:07:02Z</time>
      </trkpt>
      <trkpt lat="44.35724" lon="2.59332">
        <ele>538.9562988</ele>
        <time>2014-09-13T07:07:08Z</time>
      </trkpt>
      <trkpt lat="44.35738" lon="2.59359">
        <ele>539.9176025</ele>
        <time>2014-09-13T07:07:16Z</time>
      </trkpt>
      <trkpt lat="44.35745" lon="2.59373">
        <ele>539.4368896</ele>
        <time>2014-09-13T07:07:21Z</time>
      </trkpt>
      <trkpt lat="44.3575" lon="2.59386">
        <ele>538.475708</ele>
        <time>2014-09-13T07:07:26Z</time>
      </trkpt>
      <trkpt lat="44.35767" lon="2.59406">
        <ele>535.5915527</ele>
        <time>2014-09-13T07:07:34Z</time>
      </trkpt>
      <trkpt lat="44.3578" lon="2.59432">
        <ele>535.1109619</ele>
        <time>2014-09-13T07:07:42Z</time>
      </trkpt>
      <trkpt lat="44.3578" lon="2.59462">
        <ele>536.0723877</ele>
        <time>2014-09-13T07:07:49Z</time>
      </trkpt>
      <trkpt lat="44.35778" lon="2.59494">
        <ele>537.0336914</ele>
        <time>2014-09-13T07:07:57Z</time>
      </trkpt>
      <trkpt lat="44.35776" lon="2.59526">
        <ele>537.0336914</ele>
        <time>2014-09-13T07:08:05Z</time>
      </trkpt>
      <trkpt lat="44.35773" lon="2.59551">
        <ele>538.475708</ele>
        <time>2014-09-13T07:08:12Z</time>
      </trkpt>
      <trkpt lat="44.35771" lon="2.5958">
        <ele>538.475708</ele>
        <time>2014-09-13T07:08:20Z</time>
      </trkpt>
      <trkpt lat="44.35769" lon="2.59606">
        <ele>537.9949951</ele>
        <time>2014-09-13T07:08:27Z</time>
      </trkpt>
      <trkpt lat="44.35769" lon="2.59613">
        <ele>538.9562988</ele>
        <time>2014-09-13T07:08:29Z</time>
      </trkpt>
      <trkpt lat="44.35765" lon="2.59624">
        <ele>539.4368896</ele>
        <time>2014-09-13T07:08:33Z</time>
      </trkpt>
      <trkpt lat="44.35754" lon="2.59639">
        <ele>537.9949951</ele>
        <time>2014-09-13T07:08:39Z</time>
      </trkpt>
      <trkpt lat="44.35739" lon="2.5966">
        <ele>537.5142822</ele>
        <time>2014-09-13T07:08:47Z</time>
      </trkpt>
      <trkpt lat="44.3573" lon="2.59675">
        <ele>537.9949951</ele>
        <time>2014-09-13T07:08:53Z</time>
      </trkpt>
      <trkpt lat="44.35719" lon="2.59692">
        <ele>537.5142822</ele>
        <time>2014-09-13T07:08:59Z</time>
      </trkpt>
      <trkpt lat="44.35713" lon="2.59701">
        <ele>537.9949951</ele>
        <time>2014-09-13T07:09:03Z</time>
      </trkpt>
      <trkpt lat="44.35703" lon="2.59716">
        <ele>537.9949951</ele>
        <time>2014-09-13T07:09:09Z</time>
      </trkpt>
      <trkpt lat="44.35688" lon="2.59739">
        <ele>538.475708</ele>
        <time>2014-09-13T07:09:17Z</time>
      </trkpt>
      <trkpt lat="44.35679" lon="2.59751">
        <ele>537.9949951</ele>
        <time>2014-09-13T07:09:22Z</time>
      </trkpt>
      <trkpt lat="44.35668" lon="2.59754">
        <ele>537.0336914</ele>
        <time>2014-09-13T07:09:26Z</time>
      </trkpt>
      <trkpt lat="44.35655" lon="2.59745">
        <ele>535.1109619</ele>
        <time>2014-09-13T07:09:31Z</time>
      </trkpt>
      <trkpt lat="44.35646" lon="2.59726">
        <ele>534.1496582</ele>
        <time>2014-09-13T07:09:37Z</time>
      </trkpt>
      <trkpt lat="44.35644" lon="2.59723">
        <ele>534.6303711</ele>
        <time>2014-09-13T07:09:38Z</time>
      </trkpt>
      <trkpt lat="44.35638" lon="2.59727">
        <ele>536.5531006</ele>
        <time>2014-09-13T07:09:43Z</time>
      </trkpt>
      <trkpt lat="44.35629" lon="2.59737">
        <ele>538.475708</ele>
        <time>2014-09-13T07:09:49Z</time>
      </trkpt>
      <trkpt lat="44.35621" lon="2.59746">
        <ele>540.8789063</ele>
        <time>2014-09-13T07:09:54Z</time>
      </trkpt>
      <trkpt lat="44.35612" lon="2.59755">
        <ele>543.7628174</ele>
        <time>2014-09-13T07:10:00Z</time>
      </trkpt>
      <trkpt lat="44.35596" lon="2.59767">
        <ele>544.7242432</ele>
        <time>2014-09-13T07:10:08Z</time>
      </trkpt>
      <trkpt lat="44.35586" lon="2.59775">
        <ele>547.6081543</ele>
        <time>2014-09-13T07:10:15Z</time>
      </trkpt>
      <trkpt lat="44.35573" lon="2.59786">
        <ele>550.4921875</ele>
        <time>2014-09-13T07:10:25Z</time>
      </trkpt>
      <trkpt lat="44.35563" lon="2.59795">
        <ele>552.8952637</ele>
        <time>2014-09-13T07:10:34Z</time>
      </trkpt>
      <trkpt lat="44.35556" lon="2.598">
        <ele>554.8178711</ele>
        <time>2014-09-13T07:10:41Z</time>
      </trkpt>
      <trkpt lat="44.35544" lon="2.59809">
        <ele>557.2214355</ele>
        <time>2014-09-13T07:10:50Z</time>
      </trkpt>
      <trkpt lat="44.3553" lon="2.59818">
        <ele>560.1052246</ele>
        <time>2014-09-13T07:11:02Z</time>
      </trkpt>
      <trkpt lat="44.35518" lon="2.59827">
        <ele>563.4699707</ele>
        <time>2014-09-13T07:11:14Z</time>
      </trkpt>
      <trkpt lat="44.35506" lon="2.59833">
        <ele>566.3537598</ele>
        <time>2014-09-13T07:11:25Z</time>
      </trkpt>
      <trkpt lat="44.35499" lon="2.59843">
        <ele>568.7570801</ele>
        <time>2014-09-13T07:11:33Z</time>
      </trkpt>
      <trkpt lat="44.3549" lon="2.59858">
        <ele>570.1989746</ele>
        <time>2014-09-13T07:11:42Z</time>
      </trkpt>
      <trkpt lat="44.35475" lon="2.59887">
        <ele>572.6025391</ele>
        <time>2014-09-13T07:11:57Z</time>
      </trkpt>
      <trkpt lat="44.35463" lon="2.59906">
        <ele>575.0058594</ele>
        <time>2014-09-13T07:12:08Z</time>
      </trkpt>
      <trkpt lat="44.35451" lon="2.59919">
        <ele>577.4091797</ele>
        <time>2014-09-13T07:12:18Z</time>
      </trkpt>
      <trkpt lat="44.3544" lon="2.5993">
        <ele>580.2929688</ele>
        <time>2014-09-13T07:12:28Z</time>
      </trkpt>
      <trkpt lat="44.3543" lon="2.5994">
        <ele>582.2155762</ele>
        <time>2014-09-13T07:12:37Z</time>
      </trkpt>
      <trkpt lat="44.35421" lon="2.59948">
        <ele>583.6574707</ele>
        <time>2014-09-13T07:12:45Z</time>
      </trkpt>
      <trkpt lat="44.35412" lon="2.59959">
        <ele>586.5415039</ele>
        <time>2014-09-13T07:12:55Z</time>
      </trkpt>
      <trkpt lat="44.35404" lon="2.59969">
        <ele>588.9450684</ele>
        <time>2014-09-13T07:13:04Z</time>
      </trkpt>
      <trkpt lat="44.35391" lon="2.59985">
        <ele>591.8288574</ele>
        <time>2014-09-13T07:13:16Z</time>
      </trkpt>
      <trkpt lat="44.35381" lon="2.59999">
        <ele>594.2321777</ele>
        <time>2014-09-13T07:13:26Z</time>
      </trkpt>
      <trkpt lat="44.35369" lon="2.60016">
        <ele>596.1547852</ele>
        <time>2014-09-13T07:13:36Z</time>
      </trkpt>
      <trkpt lat="44.35357" lon="2.60035">
        <ele>595.6740723</ele>
        <time>2014-09-13T07:13:44Z</time>
      </trkpt>
      <trkpt lat="44.35353" lon="2.60053">
        <ele>598.5578613</ele>
        <time>2014-09-13T07:13:52Z</time>
      </trkpt>
      <trkpt lat="44.35351" lon="2.60067">
        <ele>600.9611816</ele>
        <time>2014-09-13T07:13:57Z</time>
      </trkpt>
      <trkpt lat="44.35349" lon="2.60091">
        <ele>605.2873535</ele>
        <time>2014-09-13T07:14:06Z</time>
      </trkpt>
      <trkpt lat="44.35348" lon="2.60116">
        <ele>611.0551758</ele>
        <time>2014-09-13T07:14:15Z</time>
      </trkpt>
      <trkpt lat="44.35347" lon="2.60137">
        <ele>614.9003906</ele>
        <time>2014-09-13T07:14:22Z</time>
      </trkpt>
      <trkpt lat="44.35346" lon="2.6016">
        <ele>614.9003906</ele>
        <time>2014-09-13T07:14:29Z</time>
      </trkpt>
      <trkpt lat="44.3534" lon="2.60187">
        <ele>616.3422852</ele>
        <time>2014-09-13T07:14:37Z</time>
      </trkpt>
      <trkpt lat="44.35331" lon="2.60209">
        <ele>617.3037109</ele>
        <time>2014-09-13T07:14:44Z</time>
      </trkpt>
      <trkpt lat="44.35322" lon="2.60231">
        <ele>619.2263184</ele>
        <time>2014-09-13T07:14:52Z</time>
      </trkpt>
      <trkpt lat="44.35315" lon="2.60251">
        <ele>620.668457</ele>
        <time>2014-09-13T07:14:59Z</time>
      </trkpt>
      <trkpt lat="44.35308" lon="2.60266">
        <ele>620.668457</ele>
        <time>2014-09-13T07:15:04Z</time>
      </trkpt>
      <trkpt lat="44.353" lon="2.6028">
        <ele>620.668457</ele>
        <time>2014-09-13T07:15:09Z</time>
      </trkpt>
      <trkpt lat="44.35291" lon="2.60294">
        <ele>620.668457</ele>
        <time>2014-09-13T07:15:14Z</time>
      </trkpt>
      <trkpt lat="44.35276" lon="2.60313">
        <ele>617.3037109</ele>
        <time>2014-09-13T07:15:21Z</time>
      </trkpt>
      <trkpt lat="44.35262" lon="2.60327">
        <ele>616.3422852</ele>
        <time>2014-09-13T07:15:27Z</time>
      </trkpt>
      <trkpt lat="44.35252" lon="2.60338">
        <ele>616.3422852</ele>
        <time>2014-09-13T07:15:32Z</time>
      </trkpt>
      <trkpt lat="44.35243" lon="2.60349">
        <ele>617.3037109</ele>
        <time>2014-09-13T07:15:38Z</time>
      </trkpt>
      <trkpt lat="44.35234" lon="2.60357">
        <ele>617.7841797</ele>
        <time>2014-09-13T07:15:43Z</time>
      </trkpt>
      <trkpt lat="44.35226" lon="2.60367">
        <ele>619.2263184</ele>
        <time>2014-09-13T07:15:48Z</time>
      </trkpt>
      <trkpt lat="44.35213" lon="2.60379">
        <ele>621.1491699</ele>
        <time>2014-09-13T07:15:55Z</time>
      </trkpt>
      <trkpt lat="44.35198" lon="2.6039">
        <ele>621.1491699</ele>
        <time>2014-09-13T07:16:01Z</time>
      </trkpt>
      <trkpt lat="44.35185" lon="2.60399">
        <ele>619.7070313</ele>
        <time>2014-09-13T07:16:06Z</time>
      </trkpt>
      <trkpt lat="44.35171" lon="2.60406">
        <ele>618.7456055</ele>
        <time>2014-09-13T07:16:11Z</time>
      </trkpt>
      <trkpt lat="44.35155" lon="2.60415">
        <ele>618.2648926</ele>
        <time>2014-09-13T07:16:17Z</time>
      </trkpt>
      <trkpt lat="44.35136" lon="2.60424">
        <ele>618.2648926</ele>
        <time>2014-09-13T07:16:24Z</time>
      </trkpt>
      <trkpt lat="44.35115" lon="2.60433">
        <ele>617.3037109</ele>
        <time>2014-09-13T07:16:32Z</time>
      </trkpt>
      <trkpt lat="44.35096" lon="2.60439">
        <ele>615.8618164</ele>
        <time>2014-09-13T07:16:39Z</time>
      </trkpt>
      <trkpt lat="44.35082" lon="2.6044">
        <ele>615.3811035</ele>
        <time>2014-09-13T07:16:44Z</time>
      </trkpt>
      <trkpt lat="44.35063" lon="2.60439">
        <ele>613.9389648</ele>
        <time>2014-09-13T07:16:51Z</time>
      </trkpt>
      <trkpt lat="44.35045" lon="2.60435">
        <ele>614.9003906</ele>
        <time>2014-09-13T07:16:58Z</time>
      </trkpt>
      <trkpt lat="44.35031" lon="2.60433">
        <ele>614.4196777</ele>
        <time>2014-09-13T07:17:04Z</time>
      </trkpt>
      <trkpt lat="44.35028" lon="2.60433">
        <ele>614.4196777</ele>
        <time>2014-09-13T07:17:05Z</time>
      </trkpt>
      <trkpt lat="44.35011" lon="2.60445">
        <ele>612.9777832</ele>
        <time>2014-09-13T07:17:12Z</time>
      </trkpt>
      <trkpt lat="44.34997" lon="2.60454">
        <ele>612.0166016</ele>
        <time>2014-09-13T07:17:19Z</time>
      </trkpt>
      <trkpt lat="44.34995" lon="2.60454">
        <ele>611.5358887</ele>
        <time>2014-09-13T07:17:25Z</time>
      </trkpt>
      <trkpt lat="44.34993" lon="2.60457">
        <ele>611.5358887</ele>
        <time>2014-09-13T07:17:28Z</time>
      </trkpt>
      <trkpt lat="44.34985" lon="2.60463">
        <ele>611.5358887</ele>
        <time>2014-09-13T07:17:33Z</time>
      </trkpt>
      <trkpt lat="44.34967" lon="2.6046">
        <ele>609.1325684</ele>
        <time>2014-09-13T07:17:39Z</time>
      </trkpt>
      <trkpt lat="44.34951" lon="2.60459">
        <ele>608.1713867</ele>
        <time>2014-09-13T07:17:44Z</time>
      </trkpt>
      <trkpt lat="44.3494" lon="2.60457">
        <ele>608.1713867</ele>
        <time>2014-09-13T07:17:49Z</time>
      </trkpt>
      <trkpt lat="44.34921" lon="2.6046">
        <ele>607.2099609</ele>
        <time>2014-09-13T07:17:56Z</time>
      </trkpt>
      <trkpt lat="44.34908" lon="2.60465">
        <ele>606.729248</ele>
        <time>2014-09-13T07:18:02Z</time>
      </trkpt>
      <trkpt lat="44.34901" lon="2.60469">
        <ele>607.2099609</ele>
        <time>2014-09-13T07:18:06Z</time>
      </trkpt>
      <trkpt lat="44.34886" lon="2.60478">
        <ele>609.1325684</ele>
        <time>2014-09-13T07:18:14Z</time>
      </trkpt>
      <trkpt lat="44.34873" lon="2.60491">
        <ele>611.0551758</ele>
        <time>2014-09-13T07:18:21Z</time>
      </trkpt>
      <trkpt lat="44.34867" lon="2.60502">
        <ele>613.9389648</ele>
        <time>2014-09-13T07:18:26Z</time>
      </trkpt>
      <trkpt lat="44.34865" lon="2.60509">
        <ele>614.9003906</ele>
        <time>2014-09-13T07:18:29Z</time>
      </trkpt>
      <trkpt lat="44.34853" lon="2.60519">
        <ele>616.822998</ele>
        <time>2014-09-13T07:18:36Z</time>
      </trkpt>
      <trkpt lat="44.3484" lon="2.60517">
        <ele>617.3037109</ele>
        <time>2014-09-13T07:18:42Z</time>
      </trkpt>
      <trkpt lat="44.34827" lon="2.6051">
        <ele>619.2263184</ele>
        <time>2014-09-13T07:18:49Z</time>
      </trkpt>
      <trkpt lat="44.34813" lon="2.60514">
        <ele>621.6296387</ele>
        <time>2014-09-13T07:18:56Z</time>
      </trkpt>
      <trkpt lat="44.34797" lon="2.60516">
        <ele>624.032959</ele>
        <time>2014-09-13T07:19:03Z</time>
      </trkpt>
      <trkpt lat="44.34782" lon="2.60515">
        <ele>625.9555664</ele>
        <time>2014-09-13T07:19:10Z</time>
      </trkpt>
      <trkpt lat="44.34771" lon="2.60514">
        <ele>627.8781738</ele>
        <time>2014-09-13T07:19:16Z</time>
      </trkpt>
      <trkpt lat="44.34763" lon="2.60517">
        <ele>629.8007813</ele>
        <time>2014-09-13T07:19:21Z</time>
      </trkpt>
      <trkpt lat="44.34752" lon="2.60529">
        <ele>633.1652832</ele>
        <time>2014-09-13T07:19:28Z</time>
      </trkpt>
      <trkpt lat="44.34743" lon="2.6054">
        <ele>633.6459961</ele>
        <time>2014-09-13T07:19:33Z</time>
      </trkpt>
      <trkpt lat="44.34729" lon="2.60552">
        <ele>632.6848145</ele>
        <time>2014-09-13T07:19:39Z</time>
      </trkpt>
      <trkpt lat="44.34713" lon="2.60566">
        <ele>633.1652832</ele>
        <time>2014-09-13T07:19:46Z</time>
      </trkpt>
      <trkpt lat="44.34693" lon="2.60578">
        <ele>634.126709</ele>
        <time>2014-09-13T07:19:54Z</time>
      </trkpt>
      <trkpt lat="44.34677" lon="2.60585">
        <ele>635.5686035</ele>
        <time>2014-09-13T07:20:01Z</time>
      </trkpt>
      <trkpt lat="44.34658" lon="2.6059">
        <ele>636.0495605</ele>
        <time>2014-09-13T07:20:09Z</time>
      </trkpt>
      <trkpt lat="44.34655" lon="2.60591">
        <ele>635.5686035</ele>
        <time>2014-09-13T07:20:11Z</time>
      </trkpt>
      <trkpt lat="44.34652" lon="2.60591">
        <ele>635.5686035</ele>
        <time>2014-09-13T07:20:16Z</time>
      </trkpt>
      <trkpt lat="44.34651" lon="2.6059">
        <ele>635.0881348</ele>
        <time>2014-09-13T07:20:18Z</time>
      </trkpt>
      <trkpt lat="44.34635" lon="2.60599">
        <ele>635.5686035</ele>
        <time>2014-09-13T07:20:25Z</time>
      </trkpt>
      <trkpt lat="44.34622" lon="2.60607">
        <ele>635.0881348</ele>
        <time>2014-09-13T07:20:30Z</time>
      </trkpt>
      <trkpt lat="44.34605" lon="2.60614">
        <ele>634.6074219</ele>
        <time>2014-09-13T07:20:36Z</time>
      </trkpt>
      <trkpt lat="44.34589" lon="2.60623">
        <ele>635.0881348</ele>
        <time>2014-09-13T07:20:42Z</time>
      </trkpt>
      <trkpt lat="44.34573" lon="2.60633">
        <ele>634.126709</ele>
        <time>2014-09-13T07:20:48Z</time>
      </trkpt>
      <trkpt lat="44.34561" lon="2.60637">
        <ele>633.1652832</ele>
        <time>2014-09-13T07:20:53Z</time>
      </trkpt>
      <trkpt lat="44.34557" lon="2.6064">
        <ele>633.1652832</ele>
        <time>2014-09-13T07:20:55Z</time>
      </trkpt>
      <trkpt lat="44.34547" lon="2.60659">
        <ele>633.1652832</ele>
        <time>2014-09-13T07:21:01Z</time>
      </trkpt>
      <trkpt lat="44.34534" lon="2.6068">
        <ele>631.7233887</ele>
        <time>2014-09-13T07:21:08Z</time>
      </trkpt>
      <trkpt lat="44.34523" lon="2.60693">
        <ele>631.7233887</ele>
        <time>2014-09-13T07:21:13Z</time>
      </trkpt>
      <trkpt lat="44.34509" lon="2.60705">
        <ele>633.1652832</ele>
        <time>2014-09-13T07:21:19Z</time>
      </trkpt>
      <trkpt lat="44.34499" lon="2.60717">
        <ele>634.126709</ele>
        <time>2014-09-13T07:21:24Z</time>
      </trkpt>
      <trkpt lat="44.3449" lon="2.60734">
        <ele>635.5686035</ele>
        <time>2014-09-13T07:21:30Z</time>
      </trkpt>
      <trkpt lat="44.34486" lon="2.60749">
        <ele>637.4914551</ele>
        <time>2014-09-13T07:21:35Z</time>
      </trkpt>
      <trkpt lat="44.3448" lon="2.60765">
        <ele>638.9335938</ele>
        <time>2014-09-13T07:21:40Z</time>
      </trkpt>
      <trkpt lat="44.34475" lon="2.60779">
        <ele>639.8947754</ele>
        <time>2014-09-13T07:21:45Z</time>
      </trkpt>
      <trkpt lat="44.3447" lon="2.60796">
        <ele>642.2980957</ele>
        <time>2014-09-13T07:21:50Z</time>
      </trkpt>
      <trkpt lat="44.34462" lon="2.6082">
        <ele>644.7011719</ele>
        <time>2014-09-13T07:21:57Z</time>
      </trkpt>
      <trkpt lat="44.34458" lon="2.60838">
        <ele>642.7788086</ele>
        <time>2014-09-13T07:22:02Z</time>
      </trkpt>
      <trkpt lat="44.3445" lon="2.60865">
        <ele>639.4140625</ele>
        <time>2014-09-13T07:22:09Z</time>
      </trkpt>
      <trkpt lat="44.34445" lon="2.60882">
        <ele>637.0107422</ele>
        <time>2014-09-13T07:22:14Z</time>
      </trkpt>
      <trkpt lat="44.3444" lon="2.60907">
        <ele>636.0495605</ele>
        <time>2014-09-13T07:22:20Z</time>
      </trkpt>
      <trkpt lat="44.34435" lon="2.60934">
        <ele>635.5686035</ele>
        <time>2014-09-13T07:22:27Z</time>
      </trkpt>
      <trkpt lat="44.34432" lon="2.60953">
        <ele>635.0881348</ele>
        <time>2014-09-13T07:22:32Z</time>
      </trkpt>
      <trkpt lat="44.34427" lon="2.60982">
        <ele>634.6074219</ele>
        <time>2014-09-13T07:22:39Z</time>
      </trkpt>
      <trkpt lat="44.34422" lon="2.61003">
        <ele>636.5302734</ele>
        <time>2014-09-13T07:22:45Z</time>
      </trkpt>
      <trkpt lat="44.34416" lon="2.61032">
        <ele>637.4914551</ele>
        <time>2014-09-13T07:22:52Z</time>
      </trkpt>
      <trkpt lat="44.3441" lon="2.61056">
        <ele>637.4914551</ele>
        <time>2014-09-13T07:22:58Z</time>
      </trkpt>
      <trkpt lat="44.34407" lon="2.61076">
        <ele>637.0107422</ele>
        <time>2014-09-13T07:23:03Z</time>
      </trkpt>
      <trkpt lat="44.344" lon="2.61096">
        <ele>635.0881348</ele>
        <time>2014-09-13T07:23:08Z</time>
      </trkpt>
      <trkpt lat="44.34392" lon="2.61123">
        <ele>632.6848145</ele>
        <time>2014-09-13T07:23:15Z</time>
      </trkpt>
      <trkpt lat="44.34384" lon="2.61146">
        <ele>630.762207</ele>
        <time>2014-09-13T07:23:21Z</time>
      </trkpt>
      <trkpt lat="44.34377" lon="2.61174">
        <ele>628.8395996</ele>
        <time>2014-09-13T07:23:28Z</time>
      </trkpt>
      <trkpt lat="44.3437" lon="2.61197">
        <ele>625.9555664</ele>
        <time>2014-09-13T07:23:34Z</time>
      </trkpt>
      <trkpt lat="44.34364" lon="2.61217">
        <ele>624.032959</ele>
        <time>2014-09-13T07:23:39Z</time>
      </trkpt>
      <trkpt lat="44.34358" lon="2.61234">
        <ele>622.1103516</ele>
        <time>2014-09-13T07:23:44Z</time>
      </trkpt>
      <trkpt lat="44.34353" lon="2.6125">
        <ele>622.1103516</ele>
        <time>2014-09-13T07:23:49Z</time>
      </trkpt>
      <trkpt lat="44.34346" lon="2.61273">
        <ele>622.1103516</ele>
        <time>2014-09-13T07:23:56Z</time>
      </trkpt>
      <trkpt lat="44.34341" lon="2.61287">
        <ele>621.6296387</ele>
        <time>2014-09-13T07:24:01Z</time>
      </trkpt>
      <trkpt lat="44.34331" lon="2.61304">
        <ele>621.6296387</ele>
        <time>2014-09-13T07:24:07Z</time>
      </trkpt>
      <trkpt lat="44.34322" lon="2.61319">
        <ele>622.1103516</ele>
        <time>2014-09-13T07:24:12Z</time>
      </trkpt>
      <trkpt lat="44.3431" lon="2.61335">
        <ele>621.6296387</ele>
        <time>2014-09-13T07:24:17Z</time>
      </trkpt>
      <trkpt lat="44.34297" lon="2.61349">
        <ele>618.7456055</ele>
        <time>2014-09-13T07:24:23Z</time>
      </trkpt>
      <trkpt lat="44.34281" lon="2.61364">
        <ele>617.3037109</ele>
        <time>2014-09-13T07:24:29Z</time>
      </trkpt>
      <trkpt lat="44.34273" lon="2.61373">
        <ele>616.822998</ele>
        <time>2014-09-13T07:24:34Z</time>
      </trkpt>
      <trkpt lat="44.34261" lon="2.61382">
        <ele>616.822998</ele>
        <time>2014-09-13T07:24:39Z</time>
      </trkpt>
      <trkpt lat="44.3425" lon="2.61391">
        <ele>614.9003906</ele>
        <time>2014-09-13T07:24:44Z</time>
      </trkpt>
      <trkpt lat="44.34241" lon="2.61398">
        <ele>615.3811035</ele>
        <time>2014-09-13T07:24:48Z</time>
      </trkpt>
      <trkpt lat="44.34233" lon="2.61403">
        <ele>613.9389648</ele>
        <time>2014-09-13T07:24:51Z</time>
      </trkpt>
      <trkpt lat="44.3422" lon="2.61416">
        <ele>612.4970703</ele>
        <time>2014-09-13T07:24:57Z</time>
      </trkpt>
      <trkpt lat="44.34207" lon="2.61427">
        <ele>610.5744629</ele>
        <time>2014-09-13T07:25:02Z</time>
      </trkpt>
      <trkpt lat="44.34196" lon="2.6144">
        <ele>610.09375</ele>
        <time>2014-09-13T07:25:07Z</time>
      </trkpt>
      <trkpt lat="44.34194" lon="2.61452">
        <ele>611.0551758</ele>
        <time>2014-09-13T07:25:12Z</time>
      </trkpt>
      <trkpt lat="44.34194" lon="2.61469">
        <ele>610.5744629</ele>
        <time>2014-09-13T07:25:17Z</time>
      </trkpt>
      <trkpt lat="44.34195" lon="2.61494">
        <ele>609.6132813</ele>
        <time>2014-09-13T07:25:24Z</time>
      </trkpt>
      <trkpt lat="44.34195" lon="2.61517">
        <ele>608.6518555</ele>
        <time>2014-09-13T07:25:30Z</time>
      </trkpt>
      <trkpt lat="44.34191" lon="2.61536">
        <ele>608.6518555</ele>
        <time>2014-09-13T07:25:35Z</time>
      </trkpt>
      <trkpt lat="44.34187" lon="2.61547">
        <ele>608.6518555</ele>
        <time>2014-09-13T07:25:39Z</time>
      </trkpt>
      <trkpt lat="44.34184" lon="2.61557">
        <ele>609.1325684</ele>
        <time>2014-09-13T07:25:44Z</time>
      </trkpt>
      <trkpt lat="44.34184" lon="2.61562">
        <ele>611.0551758</ele>
        <time>2014-09-13T07:25:46Z</time>
      </trkpt>
      <trkpt lat="44.34187" lon="2.61576">
        <ele>614.4196777</ele>
        <time>2014-09-13T07:25:52Z</time>
      </trkpt>
      <trkpt lat="44.34188" lon="2.61594">
        <ele>618.7456055</ele>
        <time>2014-09-13T07:25:58Z</time>
      </trkpt>
      <trkpt lat="44.34186" lon="2.61617">
        <ele>619.2263184</ele>
        <time>2014-09-13T07:26:05Z</time>
      </trkpt>
      <trkpt lat="44.34183" lon="2.61639">
        <ele>620.668457</ele>
        <time>2014-09-13T07:26:12Z</time>
      </trkpt>
      <trkpt lat="44.34179" lon="2.61651">
        <ele>619.2263184</ele>
        <time>2014-09-13T07:26:17Z</time>
      </trkpt>
      <trkpt lat="44.34176" lon="2.6166">
        <ele>617.7841797</ele>
        <time>2014-09-13T07:26:22Z</time>
      </trkpt>
      <trkpt lat="44.3417" lon="2.61682">
        <ele>618.2648926</ele>
        <time>2014-09-13T07:26:29Z</time>
      </trkpt>
      <trkpt lat="44.34163" lon="2.61706">
        <ele>619.2263184</ele>
        <time>2014-09-13T07:26:37Z</time>
      </trkpt>
      <trkpt lat="44.34154" lon="2.61728">
        <ele>619.2263184</ele>
        <time>2014-09-13T07:26:44Z</time>
      </trkpt>
      <trkpt lat="44.34144" lon="2.61749">
        <ele>619.2263184</ele>
        <time>2014-09-13T07:26:51Z</time>
      </trkpt>
      <trkpt lat="44.34131" lon="2.6177">
        <ele>619.2263184</ele>
        <time>2014-09-13T07:26:59Z</time>
      </trkpt>
      <trkpt lat="44.34119" lon="2.61784">
        <ele>620.1877441</ele>
        <time>2014-09-13T07:27:05Z</time>
      </trkpt>
      <trkpt lat="44.34112" lon="2.61793">
        <ele>620.1877441</ele>
        <time>2014-09-13T07:27:09Z</time>
      </trkpt>
      <trkpt lat="44.341" lon="2.61808">
        <ele>620.668457</ele>
        <time>2014-09-13T07:27:16Z</time>
      </trkpt>
      <trkpt lat="44.34088" lon="2.61825">
        <ele>621.6296387</ele>
        <time>2014-09-13T07:27:23Z</time>
      </trkpt>
      <trkpt lat="44.3408" lon="2.61838">
        <ele>622.5910645</ele>
        <time>2014-09-13T07:27:28Z</time>
      </trkpt>
      <trkpt lat="44.34073" lon="2.61852">
        <ele>622.5910645</ele>
        <time>2014-09-13T07:27:33Z</time>
      </trkpt>
      <trkpt lat="44.34063" lon="2.61874">
        <ele>622.5910645</ele>
        <time>2014-09-13T07:27:40Z</time>
      </trkpt>
      <trkpt lat="44.34054" lon="2.61895">
        <ele>623.0717773</ele>
        <time>2014-09-13T07:27:47Z</time>
      </trkpt>
      <trkpt lat="44.34047" lon="2.61912">
        <ele>624.5136719</ele>
        <time>2014-09-13T07:27:53Z</time>
      </trkpt>
      <trkpt lat="44.34038" lon="2.61932">
        <ele>625.9555664</ele>
        <time>2014-09-13T07:28:00Z</time>
      </trkpt>
      <trkpt lat="44.34032" lon="2.61952">
        <ele>627.8781738</ele>
        <time>2014-09-13T07:28:07Z</time>
      </trkpt>
      <trkpt lat="44.34025" lon="2.61972">
        <ele>629.3200684</ele>
        <time>2014-09-13T07:28:14Z</time>
      </trkpt>
      <trkpt lat="44.34019" lon="2.61987">
        <ele>629.8007813</ele>
        <time>2014-09-13T07:28:19Z</time>
      </trkpt>
      <trkpt lat="44.34015" lon="2.61999">
        <ele>630.762207</ele>
        <time>2014-09-13T07:28:23Z</time>
      </trkpt>
      <trkpt lat="44.3401" lon="2.62016">
        <ele>632.6848145</ele>
        <time>2014-09-13T07:28:29Z</time>
      </trkpt>
      <trkpt lat="44.34005" lon="2.62039">
        <ele>634.126709</ele>
        <time>2014-09-13T07:28:36Z</time>
      </trkpt>
      <trkpt lat="44.33999" lon="2.62056">
        <ele>635.5686035</ele>
        <time>2014-09-13T07:28:42Z</time>
      </trkpt>
      <trkpt lat="44.33995" lon="2.62072">
        <ele>636.5302734</ele>
        <time>2014-09-13T07:28:47Z</time>
      </trkpt>
      <trkpt lat="44.33987" lon="2.621">
        <ele>638.4528809</ele>
        <time>2014-09-13T07:28:56Z</time>
      </trkpt>
      <trkpt lat="44.33981" lon="2.62124">
        <ele>637.972168</ele>
        <time>2014-09-13T07:29:03Z</time>
      </trkpt>
      <trkpt lat="44.33975" lon="2.62147">
        <ele>638.9335938</ele>
        <time>2014-09-13T07:29:10Z</time>
      </trkpt>
      <trkpt lat="44.3397" lon="2.62171">
        <ele>639.8947754</ele>
        <time>2014-09-13T07:29:17Z</time>
      </trkpt>
      <trkpt lat="44.33966" lon="2.62187">
        <ele>640.855957</ele>
        <time>2014-09-13T07:29:22Z</time>
      </trkpt>
      <trkpt lat="44.33956" lon="2.62211">
        <ele>641.3366699</ele>
        <time>2014-09-13T07:29:30Z</time>
      </trkpt>
      <trkpt lat="44.33947" lon="2.62231">
        <ele>641.3366699</ele>
        <time>2014-09-13T07:29:37Z</time>
      </trkpt>
      <trkpt lat="44.33935" lon="2.62256">
        <ele>643.7399902</ele>
        <time>2014-09-13T07:29:46Z</time>
      </trkpt>
      <trkpt lat="44.33929" lon="2.62281">
        <ele>645.6625977</ele>
        <time>2014-09-13T07:29:54Z</time>
      </trkpt>
      <trkpt lat="44.33928" lon="2.62306">
        <ele>649.0270996</ele>
        <time>2014-09-13T07:30:02Z</time>
      </trkpt>
      <trkpt lat="44.33931" lon="2.62333">
        <ele>653.8339844</ele>
        <time>2014-09-13T07:30:11Z</time>
      </trkpt>
      <trkpt lat="44.33935" lon="2.62362">
        <ele>656.2370605</ele>
        <time>2014-09-13T07:30:20Z</time>
      </trkpt>
      <trkpt lat="44.33938" lon="2.62392">
        <ele>657.6791992</ele>
        <time>2014-09-13T07:30:29Z</time>
      </trkpt>
      <trkpt lat="44.33936" lon="2.62419">
        <ele>658.6403809</ele>
        <time>2014-09-13T07:30:37Z</time>
      </trkpt>
      <trkpt lat="44.33931" lon="2.62442">
        <ele>660.0822754</ele>
        <time>2014-09-13T07:30:44Z</time>
      </trkpt>
      <trkpt lat="44.33922" lon="2.6247">
        <ele>660.0822754</ele>
        <time>2014-09-13T07:30:52Z</time>
      </trkpt>
      <trkpt lat="44.33914" lon="2.62484">
        <ele>660.0822754</ele>
        <time>2014-09-13T07:30:57Z</time>
      </trkpt>
      <trkpt lat="44.33898" lon="2.62504">
        <ele>660.0822754</ele>
        <time>2014-09-13T07:31:05Z</time>
      </trkpt>
      <trkpt lat="44.33884" lon="2.62527">
        <ele>661.0437012</ele>
        <time>2014-09-13T07:31:14Z</time>
      </trkpt>
      <trkpt lat="44.33873" lon="2.62551">
        <ele>661.5244141</ele>
        <time>2014-09-13T07:31:22Z</time>
      </trkpt>
      <trkpt lat="44.33864" lon="2.6257">
        <ele>665.8503418</ele>
        <time>2014-09-13T07:31:30Z</time>
      </trkpt>
      <trkpt lat="44.33851" lon="2.6258">
        <ele>669.6958008</ele>
        <time>2014-09-13T07:31:37Z</time>
      </trkpt>
      <trkpt lat="44.33839" lon="2.62588">
        <ele>672.098877</ele>
        <time>2014-09-13T07:31:43Z</time>
      </trkpt>
      <trkpt lat="44.33828" lon="2.62593">
        <ele>673.0603027</ele>
        <time>2014-09-13T07:31:49Z</time>
      </trkpt>
      <trkpt lat="44.33814" lon="2.62594">
        <ele>672.5795898</ele>
        <time>2014-09-13T07:31:55Z</time>
      </trkpt>
      <trkpt lat="44.33799" lon="2.62593">
        <ele>671.6181641</ele>
        <time>2014-09-13T07:32:01Z</time>
      </trkpt>
      <trkpt lat="44.33781" lon="2.62598">
        <ele>672.098877</ele>
        <time>2014-09-13T07:32:07Z</time>
      </trkpt>
      <trkpt lat="44.33773" lon="2.62609">
        <ele>674.9829102</ele>
        <time>2014-09-13T07:32:12Z</time>
      </trkpt>
      <trkpt lat="44.33766" lon="2.62624">
        <ele>675.9440918</ele>
        <time>2014-09-13T07:32:17Z</time>
      </trkpt>
      <trkpt lat="44.33761" lon="2.62635">
        <ele>675.4633789</ele>
        <time>2014-09-13T07:32:21Z</time>
      </trkpt>
      <trkpt lat="44.33752" lon="2.6265">
        <ele>675.9440918</ele>
        <time>2014-09-13T07:32:26Z</time>
      </trkpt>
      <trkpt lat="44.33748" lon="2.62654">
        <ele>675.9440918</ele>
        <time>2014-09-13T07:32:28Z</time>
      </trkpt>
      <trkpt lat="44.3374" lon="2.62679">
        <ele>674.9829102</ele>
        <time>2014-09-13T07:32:36Z</time>
      </trkpt>
      <trkpt lat="44.33727" lon="2.62692">
        <ele>673.0603027</ele>
        <time>2014-09-13T07:32:42Z</time>
      </trkpt>
      <trkpt lat="44.33725" lon="2.62694">
        <ele>673.0603027</ele>
        <time>2014-09-13T07:32:43Z</time>
      </trkpt>
      <trkpt lat="44.33714" lon="2.62707">
        <ele>673.5410156</ele>
        <time>2014-09-13T07:32:49Z</time>
      </trkpt>
      <trkpt lat="44.33702" lon="2.62727">
        <ele>676.9055176</ele>
        <time>2014-09-13T07:32:57Z</time>
      </trkpt>
      <trkpt lat="44.33691" lon="2.62753">
        <ele>674.0214844</ele>
        <time>2014-09-13T07:33:04Z</time>
      </trkpt>
      <trkpt lat="44.33684" lon="2.6277">
        <ele>673.5410156</ele>
        <time>2014-09-13T07:33:09Z</time>
      </trkpt>
      <trkpt lat="44.33673" lon="2.62783">
        <ele>671.6181641</ele>
        <time>2014-09-13T07:33:14Z</time>
      </trkpt>
      <trkpt lat="44.33659" lon="2.6279">
        <ele>669.6958008</ele>
        <time>2014-09-13T07:33:19Z</time>
      </trkpt>
      <trkpt lat="44.33643" lon="2.62799">
        <ele>665.8503418</ele>
        <time>2014-09-13T07:33:24Z</time>
      </trkpt>
      <trkpt lat="44.33626" lon="2.62802">
        <ele>664.888916</ele>
        <time>2014-09-13T07:33:30Z</time>
      </trkpt>
      <trkpt lat="44.33616" lon="2.62808">
        <ele>665.3696289</ele>
        <time>2014-09-13T07:33:35Z</time>
      </trkpt>
      <trkpt lat="44.33603" lon="2.62813">
        <ele>666.3308105</ele>
        <time>2014-09-13T07:33:41Z</time>
      </trkpt>
      <trkpt lat="44.33587" lon="2.6282">
        <ele>662.4855957</ele>
        <time>2014-09-13T07:33:46Z</time>
      </trkpt>
      <trkpt lat="44.33572" lon="2.62837">
        <ele>658.6403809</ele>
        <time>2014-09-13T07:33:52Z</time>
      </trkpt>
      <trkpt lat="44.3356" lon="2.62852">
        <ele>654.795166</ele>
        <time>2014-09-13T07:33:57Z</time>
      </trkpt>
      <trkpt lat="44.33549" lon="2.6287">
        <ele>652.3918457</ele>
        <time>2014-09-13T07:34:03Z</time>
      </trkpt>
      <trkpt lat="44.33547" lon="2.62875">
        <ele>652.3918457</ele>
        <time>2014-09-13T07:34:05Z</time>
      </trkpt>
      <trkpt lat="44.33548" lon="2.62886">
        <ele>650.949707</ele>
        <time>2014-09-13T07:34:09Z</time>
      </trkpt>
      <trkpt lat="44.33559" lon="2.62903">
        <ele>649.9885254</ele>
        <time>2014-09-13T07:34:16Z</time>
      </trkpt>
      <trkpt lat="44.33567" lon="2.62918">
        <ele>647.5852051</ele>
        <time>2014-09-13T07:34:22Z</time>
      </trkpt>
      <trkpt lat="44.33573" lon="2.6292">
        <ele>647.1044922</ele>
        <time>2014-09-13T07:34:27Z</time>
      </trkpt>
      <trkpt lat="44.33576" lon="2.6292">
        <ele>646.1433105</ele>
        <time>2014-09-13T07:34:34Z</time>
      </trkpt>
      <trkpt lat="44.33577" lon="2.6292">
        <ele>646.1433105</ele>
        <time>2014-09-13T07:34:35Z</time>
      </trkpt>
      <trkpt lat="44.33586" lon="2.62916">
        <ele>645.1818848</ele>
        <time>2014-09-13T07:34:43Z</time>
      </trkpt>
      <trkpt lat="44.33586" lon="2.62916">
        <ele>647.5852051</ele>
        <time>2014-09-13T07:34:48Z</time>
      </trkpt>
      <trkpt lat="44.33585" lon="2.62916">
        <ele>643.7399902</ele>
        <time>2014-09-13T07:34:55Z</time>
      </trkpt>
      <trkpt lat="44.33586" lon="2.62917">
        <ele>648.065918</ele>
        <time>2014-09-13T07:35:12Z</time>
      </trkpt>
      <trkpt lat="44.33585" lon="2.62915">
        <ele>645.1818848</ele>
        <time>2014-09-13T07:35:18Z</time>
      </trkpt>
      <trkpt lat="44.33589" lon="2.62917">
        <ele>640.855957</ele>
        <time>2014-09-13T07:35:26Z</time>
      </trkpt>
      <trkpt lat="44.33592" lon="2.62918">
        <ele>640.3754883</ele>
        <time>2014-09-13T07:35:35Z</time>
      </trkpt>
    </trkseg>
  </trk>
</gpx>